<?xml version="1.0" encoding="UTF-8" standalone="no" ?>
<gpx xmlns="http://www.topografix.com/GPX/1/1" xmlns:xsi="http://www.w3.org/2001/XMLSchema-instance" xsi:schemaLocation="http://www.topografix.com/GPX/1/1 http://www.topografix.com/GPX/1/1/gpx.xsd" version="1.1" creator="VisuGPX - https://www.visugpx.com">
  <metadata>
    <name>Chemin du hallage _ Amiens -Glisy</name>
    <desc><![CDATA[Walkmeter Marche 13 janv. 2013 09:10:26]]></desc>
  </metadata>
  <trk>
    <name><![CDATA[Nouveau parcours]]></name>
    <trkseg>
      <trkpt lat="49.89493" lon="2.30863">
        <ele>3.5</ele>
        <time>2013-01-13T08:10:26Z</time>
      </trkpt>
      <trkpt lat="49.89495" lon="2.30874">
        <ele>7.9</ele>
        <time>2013-01-13T08:10:39Z</time>
      </trkpt>
      <trkpt lat="49.89489" lon="2.30894">
        <ele>19.4</ele>
        <time>2013-01-13T08:11:00Z</time>
      </trkpt>
      <trkpt lat="49.89483" lon="2.30913">
        <ele>22.2</ele>
        <time>2013-01-13T08:11:10Z</time>
      </trkpt>
      <trkpt lat="49.89476" lon="2.30932">
        <ele>17.2</ele>
        <time>2013-01-13T08:11:32Z</time>
      </trkpt>
      <trkpt lat="49.8947" lon="2.30952">
        <ele>9</ele>
        <time>2013-01-13T08:11:48Z</time>
      </trkpt>
      <trkpt lat="49.89478" lon="2.30967">
        <ele>5.6</ele>
        <time>2013-01-13T08:12:00Z</time>
      </trkpt>
      <trkpt lat="49.89492" lon="2.30973">
        <ele>12.6</ele>
        <time>2013-01-13T08:12:09Z</time>
      </trkpt>
      <trkpt lat="49.89504" lon="2.30984">
        <ele>11.9</ele>
        <time>2013-01-13T08:12:22Z</time>
      </trkpt>
      <trkpt lat="49.89519" lon="2.30992">
        <ele>10.3</ele>
        <time>2013-01-13T08:12:31Z</time>
      </trkpt>
      <trkpt lat="49.89538" lon="2.31">
        <ele>12.3</ele>
        <time>2013-01-13T08:12:41Z</time>
      </trkpt>
      <trkpt lat="49.8954" lon="2.31007">
        <ele>16.8</ele>
        <time>2013-01-13T08:12:56Z</time>
      </trkpt>
      <trkpt lat="49.89526" lon="2.31015">
        <ele>17.8</ele>
        <time>2013-01-13T08:13:09Z</time>
      </trkpt>
      <trkpt lat="49.89519" lon="2.31034">
        <ele>18.9</ele>
        <time>2013-01-13T08:13:19Z</time>
      </trkpt>
      <trkpt lat="49.89509" lon="2.31049">
        <ele>13.8</ele>
        <time>2013-01-13T08:13:31Z</time>
      </trkpt>
      <trkpt lat="49.89507" lon="2.31072">
        <ele>11.3</ele>
        <time>2013-01-13T08:13:48Z</time>
      </trkpt>
      <trkpt lat="49.89502" lon="2.31094">
        <ele>15.8</ele>
        <time>2013-01-13T08:13:56Z</time>
      </trkpt>
      <trkpt lat="49.895" lon="2.31119">
        <ele>16</ele>
        <time>2013-01-13T08:14:05Z</time>
      </trkpt>
      <trkpt lat="49.89501" lon="2.3114">
        <ele>16.6</ele>
        <time>2013-01-13T08:14:15Z</time>
      </trkpt>
      <trkpt lat="49.89501" lon="2.31163">
        <ele>20.9</ele>
        <time>2013-01-13T08:14:26Z</time>
      </trkpt>
      <trkpt lat="49.89498" lon="2.31186">
        <ele>22.9</ele>
        <time>2013-01-13T08:14:34Z</time>
      </trkpt>
      <trkpt lat="49.89493" lon="2.31207">
        <ele>18.6</ele>
        <time>2013-01-13T08:14:48Z</time>
      </trkpt>
      <trkpt lat="49.89491" lon="2.3123">
        <ele>15.5</ele>
        <time>2013-01-13T08:14:57Z</time>
      </trkpt>
      <trkpt lat="49.89488" lon="2.31252">
        <ele>16.9</ele>
        <time>2013-01-13T08:15:08Z</time>
      </trkpt>
      <trkpt lat="49.89483" lon="2.31273">
        <ele>20</ele>
        <time>2013-01-13T08:15:15Z</time>
      </trkpt>
      <trkpt lat="49.89478" lon="2.31294">
        <ele>23.6</ele>
        <time>2013-01-13T08:15:23Z</time>
      </trkpt>
      <trkpt lat="49.89472" lon="2.31315">
        <ele>20.9</ele>
        <time>2013-01-13T08:15:35Z</time>
      </trkpt>
      <trkpt lat="49.89463" lon="2.31338">
        <ele>23.5</ele>
        <time>2013-01-13T08:15:46Z</time>
      </trkpt>
      <trkpt lat="49.89456" lon="2.31357">
        <ele>23.7</ele>
        <time>2013-01-13T08:15:58Z</time>
      </trkpt>
      <trkpt lat="49.89449" lon="2.31377">
        <ele>23.6</ele>
        <time>2013-01-13T08:16:09Z</time>
      </trkpt>
      <trkpt lat="49.89445" lon="2.31398">
        <ele>21.3</ele>
        <time>2013-01-13T08:16:20Z</time>
      </trkpt>
      <trkpt lat="49.89444" lon="2.31425">
        <ele>20.2</ele>
        <time>2013-01-13T08:16:30Z</time>
      </trkpt>
      <trkpt lat="49.89442" lon="2.31447">
        <ele>18.7</ele>
        <time>2013-01-13T08:16:44Z</time>
      </trkpt>
      <trkpt lat="49.8944" lon="2.31468">
        <ele>17.8</ele>
        <time>2013-01-13T08:16:52Z</time>
      </trkpt>
      <trkpt lat="49.8944" lon="2.3149">
        <ele>16.7</ele>
        <time>2013-01-13T08:17:03Z</time>
      </trkpt>
      <trkpt lat="49.89441" lon="2.31512">
        <ele>21.5</ele>
        <time>2013-01-13T08:17:15Z</time>
      </trkpt>
      <trkpt lat="49.89441" lon="2.31534">
        <ele>16.6</ele>
        <time>2013-01-13T08:17:30Z</time>
      </trkpt>
      <trkpt lat="49.89439" lon="2.31556">
        <ele>21.4</ele>
        <time>2013-01-13T08:17:43Z</time>
      </trkpt>
      <trkpt lat="49.89439" lon="2.31577">
        <ele>20</ele>
        <time>2013-01-13T08:17:55Z</time>
      </trkpt>
      <trkpt lat="49.89439" lon="2.31599">
        <ele>22.2</ele>
        <time>2013-01-13T08:18:06Z</time>
      </trkpt>
      <trkpt lat="49.89438" lon="2.3162">
        <ele>17.3</ele>
        <time>2013-01-13T08:18:15Z</time>
      </trkpt>
      <trkpt lat="49.89437" lon="2.31642">
        <ele>21</ele>
        <time>2013-01-13T08:18:25Z</time>
      </trkpt>
      <trkpt lat="49.89438" lon="2.31664">
        <ele>19.2</ele>
        <time>2013-01-13T08:18:35Z</time>
      </trkpt>
      <trkpt lat="49.89436" lon="2.31685">
        <ele>20.6</ele>
        <time>2013-01-13T08:18:46Z</time>
      </trkpt>
      <trkpt lat="49.89432" lon="2.31711">
        <ele>21.8</ele>
        <time>2013-01-13T08:18:56Z</time>
      </trkpt>
      <trkpt lat="49.89431" lon="2.31732">
        <ele>23</ele>
        <time>2013-01-13T08:19:06Z</time>
      </trkpt>
      <trkpt lat="49.89426" lon="2.31752">
        <ele>17.6</ele>
        <time>2013-01-13T08:19:16Z</time>
      </trkpt>
      <trkpt lat="49.8942" lon="2.31772">
        <ele>22.6</ele>
        <time>2013-01-13T08:19:25Z</time>
      </trkpt>
      <trkpt lat="49.89415" lon="2.31794">
        <ele>21.7</ele>
        <time>2013-01-13T08:19:35Z</time>
      </trkpt>
      <trkpt lat="49.8941" lon="2.31815">
        <ele>20.7</ele>
        <time>2013-01-13T08:19:44Z</time>
      </trkpt>
      <trkpt lat="49.89409" lon="2.31837">
        <ele>24.6</ele>
        <time>2013-01-13T08:19:54Z</time>
      </trkpt>
      <trkpt lat="49.8941" lon="2.31859">
        <ele>24</ele>
        <time>2013-01-13T08:20:06Z</time>
      </trkpt>
      <trkpt lat="49.8941" lon="2.3188">
        <ele>20.4</ele>
        <time>2013-01-13T08:20:15Z</time>
      </trkpt>
      <trkpt lat="49.89412" lon="2.31901">
        <ele>25.8</ele>
        <time>2013-01-13T08:20:26Z</time>
      </trkpt>
      <trkpt lat="49.89414" lon="2.31925">
        <ele>24.2</ele>
        <time>2013-01-13T08:20:37Z</time>
      </trkpt>
      <trkpt lat="49.89419" lon="2.31948">
        <ele>22.9</ele>
        <time>2013-01-13T08:20:51Z</time>
      </trkpt>
      <trkpt lat="49.89421" lon="2.3197">
        <ele>24.7</ele>
        <time>2013-01-13T08:21:02Z</time>
      </trkpt>
      <trkpt lat="49.89421" lon="2.31992">
        <ele>19</ele>
        <time>2013-01-13T08:21:14Z</time>
      </trkpt>
      <trkpt lat="49.89419" lon="2.32015">
        <ele>20</ele>
        <time>2013-01-13T08:21:24Z</time>
      </trkpt>
      <trkpt lat="49.8942" lon="2.32036">
        <ele>15.3</ele>
        <time>2013-01-13T08:21:32Z</time>
      </trkpt>
      <trkpt lat="49.89415" lon="2.32058">
        <ele>21.1</ele>
        <time>2013-01-13T08:21:41Z</time>
      </trkpt>
      <trkpt lat="49.89412" lon="2.32083">
        <ele>23.8</ele>
        <time>2013-01-13T08:21:52Z</time>
      </trkpt>
      <trkpt lat="49.89407" lon="2.32105">
        <ele>28.1</ele>
        <time>2013-01-13T08:22:03Z</time>
      </trkpt>
      <trkpt lat="49.89402" lon="2.32128">
        <ele>24.7</ele>
        <time>2013-01-13T08:22:15Z</time>
      </trkpt>
      <trkpt lat="49.89397" lon="2.32149">
        <ele>24.7</ele>
        <time>2013-01-13T08:22:26Z</time>
      </trkpt>
      <trkpt lat="49.89394" lon="2.32169">
        <ele>21.9</ele>
        <time>2013-01-13T08:22:36Z</time>
      </trkpt>
      <trkpt lat="49.89389" lon="2.32195">
        <ele>18</ele>
        <time>2013-01-13T08:22:50Z</time>
      </trkpt>
      <trkpt lat="49.89388" lon="2.32218">
        <ele>22.2</ele>
        <time>2013-01-13T08:23:05Z</time>
      </trkpt>
      <trkpt lat="49.89385" lon="2.3224">
        <ele>23.8</ele>
        <time>2013-01-13T08:23:14Z</time>
      </trkpt>
      <trkpt lat="49.89386" lon="2.32267">
        <ele>22.4</ele>
        <time>2013-01-13T08:23:25Z</time>
      </trkpt>
      <trkpt lat="49.89389" lon="2.32293">
        <ele>22.5</ele>
        <time>2013-01-13T08:23:42Z</time>
      </trkpt>
      <trkpt lat="49.89389" lon="2.32316">
        <ele>17.7</ele>
        <time>2013-01-13T08:23:56Z</time>
      </trkpt>
      <trkpt lat="49.89386" lon="2.32338">
        <ele>22.3</ele>
        <time>2013-01-13T08:24:07Z</time>
      </trkpt>
      <trkpt lat="49.89381" lon="2.32359">
        <ele>23.6</ele>
        <time>2013-01-13T08:24:16Z</time>
      </trkpt>
      <trkpt lat="49.89375" lon="2.32379">
        <ele>23.8</ele>
        <time>2013-01-13T08:24:26Z</time>
      </trkpt>
      <trkpt lat="49.89373" lon="2.32403">
        <ele>22.3</ele>
        <time>2013-01-13T08:24:35Z</time>
      </trkpt>
      <trkpt lat="49.89371" lon="2.32427">
        <ele>20.5</ele>
        <time>2013-01-13T08:24:46Z</time>
      </trkpt>
      <trkpt lat="49.89368" lon="2.32448">
        <ele>22.7</ele>
        <time>2013-01-13T08:25:00Z</time>
      </trkpt>
      <trkpt lat="49.89362" lon="2.32471">
        <ele>24.3</ele>
        <time>2013-01-13T08:25:13Z</time>
      </trkpt>
      <trkpt lat="49.89359" lon="2.32492">
        <ele>21</ele>
        <time>2013-01-13T08:25:24Z</time>
      </trkpt>
      <trkpt lat="49.89356" lon="2.32514">
        <ele>17.8</ele>
        <time>2013-01-13T08:25:35Z</time>
      </trkpt>
      <trkpt lat="49.89353" lon="2.32535">
        <ele>20.3</ele>
        <time>2013-01-13T08:25:47Z</time>
      </trkpt>
      <trkpt lat="49.89349" lon="2.32555">
        <ele>22.7</ele>
        <time>2013-01-13T08:25:59Z</time>
      </trkpt>
      <trkpt lat="49.89345" lon="2.32579">
        <ele>24.1</ele>
        <time>2013-01-13T08:26:08Z</time>
      </trkpt>
      <trkpt lat="49.89342" lon="2.32602">
        <ele>26.4</ele>
        <time>2013-01-13T08:26:19Z</time>
      </trkpt>
      <trkpt lat="49.89336" lon="2.32621">
        <ele>28.1</ele>
        <time>2013-01-13T08:26:28Z</time>
      </trkpt>
      <trkpt lat="49.8933" lon="2.32646">
        <ele>25.8</ele>
        <time>2013-01-13T08:26:39Z</time>
      </trkpt>
      <trkpt lat="49.89323" lon="2.32664">
        <ele>21</ele>
        <time>2013-01-13T08:26:50Z</time>
      </trkpt>
      <trkpt lat="49.89314" lon="2.32681">
        <ele>18.2</ele>
        <time>2013-01-13T08:27:13Z</time>
      </trkpt>
      <trkpt lat="49.89306" lon="2.32698">
        <ele>18.2</ele>
        <time>2013-01-13T08:27:21Z</time>
      </trkpt>
      <trkpt lat="49.89296" lon="2.32718">
        <ele>17.5</ele>
        <time>2013-01-13T08:27:31Z</time>
      </trkpt>
      <trkpt lat="49.89287" lon="2.32736">
        <ele>20.3</ele>
        <time>2013-01-13T08:27:44Z</time>
      </trkpt>
      <trkpt lat="49.89279" lon="2.32753">
        <ele>19.7</ele>
        <time>2013-01-13T08:27:52Z</time>
      </trkpt>
      <trkpt lat="49.89271" lon="2.32774">
        <ele>17.1</ele>
        <time>2013-01-13T08:28:01Z</time>
      </trkpt>
      <trkpt lat="49.89262" lon="2.32795">
        <ele>16</ele>
        <time>2013-01-13T08:28:14Z</time>
      </trkpt>
      <trkpt lat="49.89254" lon="2.32812">
        <ele>16.8</ele>
        <time>2013-01-13T08:28:27Z</time>
      </trkpt>
      <trkpt lat="49.89246" lon="2.32829">
        <ele>20.4</ele>
        <time>2013-01-13T08:28:37Z</time>
      </trkpt>
      <trkpt lat="49.89236" lon="2.32846">
        <ele>20.4</ele>
        <time>2013-01-13T08:28:46Z</time>
      </trkpt>
      <trkpt lat="49.89227" lon="2.32863">
        <ele>17.8</ele>
        <time>2013-01-13T08:28:56Z</time>
      </trkpt>
      <trkpt lat="49.89218" lon="2.3288">
        <ele>21.1</ele>
        <time>2013-01-13T08:29:07Z</time>
      </trkpt>
      <trkpt lat="49.8921" lon="2.32897">
        <ele>21.9</ele>
        <time>2013-01-13T08:29:20Z</time>
      </trkpt>
      <trkpt lat="49.89202" lon="2.32916">
        <ele>20.9</ele>
        <time>2013-01-13T08:29:30Z</time>
      </trkpt>
      <trkpt lat="49.89196" lon="2.32935">
        <ele>17.9</ele>
        <time>2013-01-13T08:29:37Z</time>
      </trkpt>
      <trkpt lat="49.89188" lon="2.32953">
        <ele>16.3</ele>
        <time>2013-01-13T08:29:48Z</time>
      </trkpt>
      <trkpt lat="49.89181" lon="2.32973">
        <ele>18.1</ele>
        <time>2013-01-13T08:30:00Z</time>
      </trkpt>
      <trkpt lat="49.89175" lon="2.32994">
        <ele>20.6</ele>
        <time>2013-01-13T08:30:10Z</time>
      </trkpt>
      <trkpt lat="49.89167" lon="2.33015">
        <ele>16.6</ele>
        <time>2013-01-13T08:30:21Z</time>
      </trkpt>
      <trkpt lat="49.8916" lon="2.33034">
        <ele>12.1</ele>
        <time>2013-01-13T08:30:32Z</time>
      </trkpt>
      <trkpt lat="49.89151" lon="2.33055">
        <ele>15.7</ele>
        <time>2013-01-13T08:30:42Z</time>
      </trkpt>
      <trkpt lat="49.89142" lon="2.33071">
        <ele>20.1</ele>
        <time>2013-01-13T08:30:50Z</time>
      </trkpt>
      <trkpt lat="49.89134" lon="2.33091">
        <ele>22.7</ele>
        <time>2013-01-13T08:31:03Z</time>
      </trkpt>
      <trkpt lat="49.89131" lon="2.33112">
        <ele>26.7</ele>
        <time>2013-01-13T08:31:14Z</time>
      </trkpt>
      <trkpt lat="49.89127" lon="2.33136">
        <ele>23.7</ele>
        <time>2013-01-13T08:31:24Z</time>
      </trkpt>
      <trkpt lat="49.89123" lon="2.33157">
        <ele>19.2</ele>
        <time>2013-01-13T08:31:37Z</time>
      </trkpt>
      <trkpt lat="49.89118" lon="2.33178">
        <ele>21.4</ele>
        <time>2013-01-13T08:32:07Z</time>
      </trkpt>
      <trkpt lat="49.89116" lon="2.33199">
        <ele>20.6</ele>
        <time>2013-01-13T08:32:16Z</time>
      </trkpt>
      <trkpt lat="49.89115" lon="2.33219">
        <ele>20.6</ele>
        <time>2013-01-13T08:32:25Z</time>
      </trkpt>
      <trkpt lat="49.89115" lon="2.33242">
        <ele>23.2</ele>
        <time>2013-01-13T08:32:34Z</time>
      </trkpt>
      <trkpt lat="49.89113" lon="2.33265">
        <ele>25.6</ele>
        <time>2013-01-13T08:32:42Z</time>
      </trkpt>
      <trkpt lat="49.89112" lon="2.33293">
        <ele>24.6</ele>
        <time>2013-01-13T08:32:53Z</time>
      </trkpt>
      <trkpt lat="49.89113" lon="2.33316">
        <ele>22.3</ele>
        <time>2013-01-13T08:33:06Z</time>
      </trkpt>
      <trkpt lat="49.89114" lon="2.33338">
        <ele>20.8</ele>
        <time>2013-01-13T08:33:15Z</time>
      </trkpt>
      <trkpt lat="49.89113" lon="2.33361">
        <ele>18</ele>
        <time>2013-01-13T08:33:26Z</time>
      </trkpt>
      <trkpt lat="49.89112" lon="2.3339">
        <ele>15.3</ele>
        <time>2013-01-13T08:33:37Z</time>
      </trkpt>
      <trkpt lat="49.89115" lon="2.33411">
        <ele>16.9</ele>
        <time>2013-01-13T08:33:47Z</time>
      </trkpt>
      <trkpt lat="49.89114" lon="2.33431">
        <ele>14.4</ele>
        <time>2013-01-13T08:33:58Z</time>
      </trkpt>
      <trkpt lat="49.89112" lon="2.33455">
        <ele>7.6</ele>
        <time>2013-01-13T08:34:09Z</time>
      </trkpt>
      <trkpt lat="49.89107" lon="2.33476">
        <ele>11.4</ele>
        <time>2013-01-13T08:34:18Z</time>
      </trkpt>
      <trkpt lat="49.89099" lon="2.33493">
        <ele>14.8</ele>
        <time>2013-01-13T08:34:26Z</time>
      </trkpt>
      <trkpt lat="49.89088" lon="2.33507">
        <ele>19</ele>
        <time>2013-01-13T08:34:35Z</time>
      </trkpt>
      <trkpt lat="49.89075" lon="2.33523">
        <ele>23.5</ele>
        <time>2013-01-13T08:34:46Z</time>
      </trkpt>
      <trkpt lat="49.89064" lon="2.33535">
        <ele>27.2</ele>
        <time>2013-01-13T08:34:56Z</time>
      </trkpt>
      <trkpt lat="49.89052" lon="2.33546">
        <ele>26</ele>
        <time>2013-01-13T08:35:06Z</time>
      </trkpt>
      <trkpt lat="49.89037" lon="2.33553">
        <ele>22.7</ele>
        <time>2013-01-13T08:35:16Z</time>
      </trkpt>
      <trkpt lat="49.89024" lon="2.3356">
        <ele>14.1</ele>
        <time>2013-01-13T08:35:26Z</time>
      </trkpt>
      <trkpt lat="49.8901" lon="2.33567">
        <ele>12.6</ele>
        <time>2013-01-13T08:35:36Z</time>
      </trkpt>
      <trkpt lat="49.88997" lon="2.33573">
        <ele>16</ele>
        <time>2013-01-13T08:35:44Z</time>
      </trkpt>
      <trkpt lat="49.88982" lon="2.33577">
        <ele>20</ele>
        <time>2013-01-13T08:35:55Z</time>
      </trkpt>
      <trkpt lat="49.88967" lon="2.33582">
        <ele>8.2</ele>
        <time>2013-01-13T08:36:06Z</time>
      </trkpt>
      <trkpt lat="49.88953" lon="2.33586">
        <ele>10.1</ele>
        <time>2013-01-13T08:36:15Z</time>
      </trkpt>
      <trkpt lat="49.88939" lon="2.33587">
        <ele>11.2</ele>
        <time>2013-01-13T08:36:27Z</time>
      </trkpt>
      <trkpt lat="49.88923" lon="2.33591">
        <ele>14.5</ele>
        <time>2013-01-13T08:36:36Z</time>
      </trkpt>
      <trkpt lat="49.88909" lon="2.33593">
        <ele>15.3</ele>
        <time>2013-01-13T08:36:48Z</time>
      </trkpt>
      <trkpt lat="49.88896" lon="2.33595">
        <ele>17.7</ele>
        <time>2013-01-13T08:36:57Z</time>
      </trkpt>
      <trkpt lat="49.88879" lon="2.33598">
        <ele>20.3</ele>
        <time>2013-01-13T08:37:07Z</time>
      </trkpt>
      <trkpt lat="49.88865" lon="2.33597">
        <ele>14.6</ele>
        <time>2013-01-13T08:37:19Z</time>
      </trkpt>
      <trkpt lat="49.88851" lon="2.33592">
        <ele>12.7</ele>
        <time>2013-01-13T08:37:28Z</time>
      </trkpt>
      <trkpt lat="49.88834" lon="2.33585">
        <ele>14.1</ele>
        <time>2013-01-13T08:37:39Z</time>
      </trkpt>
      <trkpt lat="49.88821" lon="2.33582">
        <ele>6.5</ele>
        <time>2013-01-13T08:37:52Z</time>
      </trkpt>
      <trkpt lat="49.88807" lon="2.33576">
        <ele>10.8</ele>
        <time>2013-01-13T08:38:02Z</time>
      </trkpt>
      <trkpt lat="49.88793" lon="2.33572">
        <ele>11.6</ele>
        <time>2013-01-13T08:38:11Z</time>
      </trkpt>
      <trkpt lat="49.88779" lon="2.33571">
        <ele>10.6</ele>
        <time>2013-01-13T08:38:22Z</time>
      </trkpt>
      <trkpt lat="49.88766" lon="2.33577">
        <ele>8.6</ele>
        <time>2013-01-13T08:38:32Z</time>
      </trkpt>
      <trkpt lat="49.88756" lon="2.33584">
        <ele>10.2</ele>
        <time>2013-01-13T08:38:50Z</time>
      </trkpt>
      <trkpt lat="49.88747" lon="2.33602">
        <ele>10.1</ele>
        <time>2013-01-13T08:38:57Z</time>
      </trkpt>
      <trkpt lat="49.88737" lon="2.33616">
        <ele>8.5</ele>
        <time>2013-01-13T08:39:03Z</time>
      </trkpt>
      <trkpt lat="49.88726" lon="2.33629">
        <ele>11</ele>
        <time>2013-01-13T08:39:09Z</time>
      </trkpt>
      <trkpt lat="49.88716" lon="2.33644">
        <ele>13.9</ele>
        <time>2013-01-13T08:39:16Z</time>
      </trkpt>
      <trkpt lat="49.88705" lon="2.33658">
        <ele>18.2</ele>
        <time>2013-01-13T08:39:23Z</time>
      </trkpt>
      <trkpt lat="49.88694" lon="2.33674">
        <ele>20.5</ele>
        <time>2013-01-13T08:39:32Z</time>
      </trkpt>
      <trkpt lat="49.88683" lon="2.33688">
        <ele>18.2</ele>
        <time>2013-01-13T08:39:42Z</time>
      </trkpt>
      <trkpt lat="49.88669" lon="2.33697">
        <ele>15.1</ele>
        <time>2013-01-13T08:39:53Z</time>
      </trkpt>
      <trkpt lat="49.88656" lon="2.33707">
        <ele>14.5</ele>
        <time>2013-01-13T08:40:04Z</time>
      </trkpt>
      <trkpt lat="49.88643" lon="2.33717">
        <ele>14</ele>
        <time>2013-01-13T08:40:15Z</time>
      </trkpt>
      <trkpt lat="49.8863" lon="2.33729">
        <ele>9.5</ele>
        <time>2013-01-13T08:40:30Z</time>
      </trkpt>
      <trkpt lat="49.88617" lon="2.33738">
        <ele>13.8</ele>
        <time>2013-01-13T08:40:41Z</time>
      </trkpt>
      <trkpt lat="49.88605" lon="2.33751">
        <ele>17.7</ele>
        <time>2013-01-13T08:40:51Z</time>
      </trkpt>
      <trkpt lat="49.88594" lon="2.33763">
        <ele>15.6</ele>
        <time>2013-01-13T08:40:59Z</time>
      </trkpt>
      <trkpt lat="49.88581" lon="2.33773">
        <ele>19.4</ele>
        <time>2013-01-13T08:41:07Z</time>
      </trkpt>
      <trkpt lat="49.88568" lon="2.33783">
        <ele>16.8</ele>
        <time>2013-01-13T08:41:18Z</time>
      </trkpt>
      <trkpt lat="49.88554" lon="2.33789">
        <ele>13.1</ele>
        <time>2013-01-13T08:41:30Z</time>
      </trkpt>
      <trkpt lat="49.8854" lon="2.33798">
        <ele>12.5</ele>
        <time>2013-01-13T08:41:40Z</time>
      </trkpt>
      <trkpt lat="49.88528" lon="2.33809">
        <ele>12.5</ele>
        <time>2013-01-13T08:41:51Z</time>
      </trkpt>
      <trkpt lat="49.88518" lon="2.33824">
        <ele>10.2</ele>
        <time>2013-01-13T08:42:01Z</time>
      </trkpt>
      <trkpt lat="49.88509" lon="2.33839">
        <ele>8.1</ele>
        <time>2013-01-13T08:42:10Z</time>
      </trkpt>
      <trkpt lat="49.88498" lon="2.33854">
        <ele>11.3</ele>
        <time>2013-01-13T08:42:20Z</time>
      </trkpt>
      <trkpt lat="49.88487" lon="2.33869">
        <ele>15.1</ele>
        <time>2013-01-13T08:42:30Z</time>
      </trkpt>
      <trkpt lat="49.88477" lon="2.33884">
        <ele>19.1</ele>
        <time>2013-01-13T08:42:40Z</time>
      </trkpt>
      <trkpt lat="49.88464" lon="2.33902">
        <ele>21.5</ele>
        <time>2013-01-13T08:42:50Z</time>
      </trkpt>
      <trkpt lat="49.88454" lon="2.33917">
        <ele>15.8</ele>
        <time>2013-01-13T08:43:02Z</time>
      </trkpt>
      <trkpt lat="49.88441" lon="2.33928">
        <ele>19.3</ele>
        <time>2013-01-13T08:43:12Z</time>
      </trkpt>
      <trkpt lat="49.8843" lon="2.33941">
        <ele>16.2</ele>
        <time>2013-01-13T08:43:22Z</time>
      </trkpt>
      <trkpt lat="49.88418" lon="2.33954">
        <ele>12.3</ele>
        <time>2013-01-13T08:43:32Z</time>
      </trkpt>
      <trkpt lat="49.88407" lon="2.3397">
        <ele>16</ele>
        <time>2013-01-13T08:43:42Z</time>
      </trkpt>
      <trkpt lat="49.88396" lon="2.33983">
        <ele>21.9</ele>
        <time>2013-01-13T08:43:52Z</time>
      </trkpt>
      <trkpt lat="49.88385" lon="2.33999">
        <ele>18.9</ele>
        <time>2013-01-13T08:44:01Z</time>
      </trkpt>
      <trkpt lat="49.88378" lon="2.34018">
        <ele>22.3</ele>
        <time>2013-01-13T08:44:10Z</time>
      </trkpt>
      <trkpt lat="49.88372" lon="2.34038">
        <ele>24.4</ele>
        <time>2013-01-13T08:44:21Z</time>
      </trkpt>
      <trkpt lat="49.88367" lon="2.34058">
        <ele>22.2</ele>
        <time>2013-01-13T08:44:31Z</time>
      </trkpt>
      <trkpt lat="49.88364" lon="2.34079">
        <ele>25.6</ele>
        <time>2013-01-13T08:44:40Z</time>
      </trkpt>
      <trkpt lat="49.88358" lon="2.34101">
        <ele>17</ele>
        <time>2013-01-13T08:44:52Z</time>
      </trkpt>
      <trkpt lat="49.88351" lon="2.34122">
        <ele>20.7</ele>
        <time>2013-01-13T08:45:03Z</time>
      </trkpt>
      <trkpt lat="49.88345" lon="2.34144">
        <ele>21.3</ele>
        <time>2013-01-13T08:45:14Z</time>
      </trkpt>
      <trkpt lat="49.88339" lon="2.34165">
        <ele>22</ele>
        <time>2013-01-13T08:45:26Z</time>
      </trkpt>
      <trkpt lat="49.88334" lon="2.34186">
        <ele>22.5</ele>
        <time>2013-01-13T08:45:36Z</time>
      </trkpt>
      <trkpt lat="49.88328" lon="2.34206">
        <ele>23</ele>
        <time>2013-01-13T08:45:45Z</time>
      </trkpt>
      <trkpt lat="49.88324" lon="2.34233">
        <ele>23.6</ele>
        <time>2013-01-13T08:45:56Z</time>
      </trkpt>
      <trkpt lat="49.88322" lon="2.34255">
        <ele>22.2</ele>
        <time>2013-01-13T08:46:08Z</time>
      </trkpt>
      <trkpt lat="49.88318" lon="2.34276">
        <ele>14</ele>
        <time>2013-01-13T08:46:21Z</time>
      </trkpt>
      <trkpt lat="49.88314" lon="2.34297">
        <ele>6.3</ele>
        <time>2013-01-13T08:46:33Z</time>
      </trkpt>
      <trkpt lat="49.88311" lon="2.34318">
        <ele>6.3</ele>
        <time>2013-01-13T08:46:41Z</time>
      </trkpt>
      <trkpt lat="49.88306" lon="2.34339">
        <ele>11.1</ele>
        <time>2013-01-13T08:46:51Z</time>
      </trkpt>
      <trkpt lat="49.88303" lon="2.34359">
        <ele>14.9</ele>
        <time>2013-01-13T08:46:59Z</time>
      </trkpt>
      <trkpt lat="49.883" lon="2.34383">
        <ele>18.5</ele>
        <time>2013-01-13T08:47:06Z</time>
      </trkpt>
      <trkpt lat="49.88299" lon="2.34404">
        <ele>22.5</ele>
        <time>2013-01-13T08:47:15Z</time>
      </trkpt>
      <trkpt lat="49.88298" lon="2.34426">
        <ele>25.4</ele>
        <time>2013-01-13T08:47:26Z</time>
      </trkpt>
      <trkpt lat="49.88297" lon="2.34448">
        <ele>28</ele>
        <time>2013-01-13T08:47:36Z</time>
      </trkpt>
      <trkpt lat="49.88294" lon="2.3447">
        <ele>24.4</ele>
        <time>2013-01-13T08:47:47Z</time>
      </trkpt>
      <trkpt lat="49.88291" lon="2.34492">
        <ele>28</ele>
        <time>2013-01-13T08:47:56Z</time>
      </trkpt>
      <trkpt lat="49.8829" lon="2.34513">
        <ele>26.8</ele>
        <time>2013-01-13T08:48:07Z</time>
      </trkpt>
      <trkpt lat="49.88289" lon="2.34535">
        <ele>27.2</ele>
        <time>2013-01-13T08:48:18Z</time>
      </trkpt>
      <trkpt lat="49.88289" lon="2.34557">
        <ele>27.4</ele>
        <time>2013-01-13T08:48:27Z</time>
      </trkpt>
      <trkpt lat="49.88289" lon="2.34581">
        <ele>23.8</ele>
        <time>2013-01-13T08:48:36Z</time>
      </trkpt>
      <trkpt lat="49.88291" lon="2.34604">
        <ele>25.3</ele>
        <time>2013-01-13T08:48:47Z</time>
      </trkpt>
      <trkpt lat="49.88294" lon="2.34626">
        <ele>19.9</ele>
        <time>2013-01-13T08:48:58Z</time>
      </trkpt>
      <trkpt lat="49.88302" lon="2.34645">
        <ele>22.6</ele>
        <time>2013-01-13T08:49:09Z</time>
      </trkpt>
      <trkpt lat="49.88309" lon="2.34667">
        <ele>25.9</ele>
        <time>2013-01-13T08:49:19Z</time>
      </trkpt>
      <trkpt lat="49.88316" lon="2.34686">
        <ele>25.3</ele>
        <time>2013-01-13T08:49:29Z</time>
      </trkpt>
      <trkpt lat="49.88319" lon="2.34707">
        <ele>24</ele>
        <time>2013-01-13T08:49:41Z</time>
      </trkpt>
      <trkpt lat="49.8832" lon="2.34728">
        <ele>23</ele>
        <time>2013-01-13T08:49:50Z</time>
      </trkpt>
      <trkpt lat="49.88323" lon="2.3475">
        <ele>22.5</ele>
        <time>2013-01-13T08:50:00Z</time>
      </trkpt>
      <trkpt lat="49.8833" lon="2.3477">
        <ele>26</ele>
        <time>2013-01-13T08:50:09Z</time>
      </trkpt>
      <trkpt lat="49.88339" lon="2.34787">
        <ele>25</ele>
        <time>2013-01-13T08:50:19Z</time>
      </trkpt>
      <trkpt lat="49.88349" lon="2.34805">
        <ele>20.8</ele>
        <time>2013-01-13T08:50:29Z</time>
      </trkpt>
      <trkpt lat="49.88359" lon="2.34824">
        <ele>19</ele>
        <time>2013-01-13T08:50:42Z</time>
      </trkpt>
      <trkpt lat="49.88369" lon="2.34838">
        <ele>18</ele>
        <time>2013-01-13T08:50:54Z</time>
      </trkpt>
      <trkpt lat="49.88383" lon="2.34849">
        <ele>20.6</ele>
        <time>2013-01-13T08:51:06Z</time>
      </trkpt>
      <trkpt lat="49.88396" lon="2.34857">
        <ele>19</ele>
        <time>2013-01-13T08:51:17Z</time>
      </trkpt>
      <trkpt lat="49.88407" lon="2.3487">
        <ele>17.4</ele>
        <time>2013-01-13T08:51:28Z</time>
      </trkpt>
      <trkpt lat="49.88419" lon="2.34884">
        <ele>19.7</ele>
        <time>2013-01-13T08:51:39Z</time>
      </trkpt>
      <trkpt lat="49.88429" lon="2.34901">
        <ele>23.3</ele>
        <time>2013-01-13T08:51:50Z</time>
      </trkpt>
      <trkpt lat="49.88436" lon="2.3492">
        <ele>13.7</ele>
        <time>2013-01-13T08:52:02Z</time>
      </trkpt>
      <trkpt lat="49.88443" lon="2.3494">
        <ele>13</ele>
        <time>2013-01-13T08:52:11Z</time>
      </trkpt>
      <trkpt lat="49.8845" lon="2.34961">
        <ele>14.3</ele>
        <time>2013-01-13T08:52:20Z</time>
      </trkpt>
      <trkpt lat="49.88459" lon="2.34981">
        <ele>15.7</ele>
        <time>2013-01-13T08:52:30Z</time>
      </trkpt>
      <trkpt lat="49.88464" lon="2.35003">
        <ele>15.1</ele>
        <time>2013-01-13T08:52:39Z</time>
      </trkpt>
      <trkpt lat="49.88468" lon="2.35023">
        <ele>15</ele>
        <time>2013-01-13T08:52:47Z</time>
      </trkpt>
      <trkpt lat="49.88479" lon="2.35045">
        <ele>19.3</ele>
        <time>2013-01-13T08:52:58Z</time>
      </trkpt>
      <trkpt lat="49.88485" lon="2.35064">
        <ele>23.1</ele>
        <time>2013-01-13T08:53:12Z</time>
      </trkpt>
      <trkpt lat="49.88485" lon="2.35085">
        <ele>28.4</ele>
        <time>2013-01-13T08:53:25Z</time>
      </trkpt>
      <trkpt lat="49.88472" lon="2.35095">
        <ele>25.1</ele>
        <time>2013-01-13T08:53:35Z</time>
      </trkpt>
      <trkpt lat="49.8846" lon="2.35107">
        <ele>27.1</ele>
        <time>2013-01-13T08:53:46Z</time>
      </trkpt>
      <trkpt lat="49.88452" lon="2.35126">
        <ele>24.8</ele>
        <time>2013-01-13T08:53:57Z</time>
      </trkpt>
      <trkpt lat="49.88458" lon="2.35145">
        <ele>13.7</ele>
        <time>2013-01-13T08:54:08Z</time>
      </trkpt>
      <trkpt lat="49.88466" lon="2.35165">
        <ele>10.9</ele>
        <time>2013-01-13T08:54:19Z</time>
      </trkpt>
      <trkpt lat="49.88479" lon="2.35178">
        <ele>16.1</ele>
        <time>2013-01-13T08:54:45Z</time>
      </trkpt>
      <trkpt lat="49.88484" lon="2.35199">
        <ele>19.2</ele>
        <time>2013-01-13T08:54:55Z</time>
      </trkpt>
      <trkpt lat="49.8849" lon="2.35219">
        <ele>21.2</ele>
        <time>2013-01-13T08:55:05Z</time>
      </trkpt>
      <trkpt lat="49.88496" lon="2.35238">
        <ele>23.4</ele>
        <time>2013-01-13T08:55:13Z</time>
      </trkpt>
      <trkpt lat="49.88501" lon="2.35259">
        <ele>24.6</ele>
        <time>2013-01-13T08:55:23Z</time>
      </trkpt>
      <trkpt lat="49.88502" lon="2.35286">
        <ele>20.6</ele>
        <time>2013-01-13T08:55:33Z</time>
      </trkpt>
      <trkpt lat="49.88497" lon="2.3531">
        <ele>21.2</ele>
        <time>2013-01-13T08:55:45Z</time>
      </trkpt>
      <trkpt lat="49.88487" lon="2.35326">
        <ele>17.9</ele>
        <time>2013-01-13T08:55:56Z</time>
      </trkpt>
      <trkpt lat="49.88476" lon="2.35342">
        <ele>17.7</ele>
        <time>2013-01-13T08:56:05Z</time>
      </trkpt>
      <trkpt lat="49.88463" lon="2.35356">
        <ele>18.9</ele>
        <time>2013-01-13T08:56:16Z</time>
      </trkpt>
      <trkpt lat="49.88452" lon="2.3537">
        <ele>20</ele>
        <time>2013-01-13T08:56:28Z</time>
      </trkpt>
      <trkpt lat="49.88441" lon="2.35381">
        <ele>21.7</ele>
        <time>2013-01-13T08:56:37Z</time>
      </trkpt>
      <trkpt lat="49.8843" lon="2.35397">
        <ele>24.2</ele>
        <time>2013-01-13T08:56:48Z</time>
      </trkpt>
      <trkpt lat="49.8842" lon="2.35413">
        <ele>23.8</ele>
        <time>2013-01-13T08:56:59Z</time>
      </trkpt>
      <trkpt lat="49.88411" lon="2.35431">
        <ele>24.2</ele>
        <time>2013-01-13T08:57:09Z</time>
      </trkpt>
      <trkpt lat="49.88405" lon="2.35451">
        <ele>24.5</ele>
        <time>2013-01-13T08:57:20Z</time>
      </trkpt>
      <trkpt lat="49.88403" lon="2.35473">
        <ele>22.8</ele>
        <time>2013-01-13T08:57:31Z</time>
      </trkpt>
      <trkpt lat="49.88403" lon="2.35496">
        <ele>22.7</ele>
        <time>2013-01-13T08:57:42Z</time>
      </trkpt>
      <trkpt lat="49.88403" lon="2.35503">
        <ele>24.3</ele>
        <time>2013-01-13T08:57:47Z</time>
      </trkpt>
      <trkpt lat="49.88408" lon="2.35523">
        <ele>17.2</ele>
        <time>2013-01-13T08:58:05Z</time>
      </trkpt>
      <trkpt lat="49.88411" lon="2.35547">
        <ele>20.4</ele>
        <time>2013-01-13T08:58:18Z</time>
      </trkpt>
      <trkpt lat="49.88413" lon="2.3557">
        <ele>21.6</ele>
        <time>2013-01-13T08:58:28Z</time>
      </trkpt>
      <trkpt lat="49.88417" lon="2.3559">
        <ele>22.7</ele>
        <time>2013-01-13T08:58:37Z</time>
      </trkpt>
      <trkpt lat="49.88423" lon="2.35612">
        <ele>21.5</ele>
        <time>2013-01-13T08:58:48Z</time>
      </trkpt>
      <trkpt lat="49.88432" lon="2.3563">
        <ele>21.2</ele>
        <time>2013-01-13T08:58:56Z</time>
      </trkpt>
      <trkpt lat="49.88436" lon="2.35651">
        <ele>25.4</ele>
        <time>2013-01-13T08:59:07Z</time>
      </trkpt>
      <trkpt lat="49.88439" lon="2.35672">
        <ele>21</ele>
        <time>2013-01-13T08:59:16Z</time>
      </trkpt>
      <trkpt lat="49.88445" lon="2.35693">
        <ele>11.9</ele>
        <time>2013-01-13T08:59:28Z</time>
      </trkpt>
      <trkpt lat="49.8845" lon="2.35713">
        <ele>19.5</ele>
        <time>2013-01-13T08:59:39Z</time>
      </trkpt>
      <trkpt lat="49.88456" lon="2.35734">
        <ele>21.1</ele>
        <time>2013-01-13T08:59:47Z</time>
      </trkpt>
      <trkpt lat="49.88456" lon="2.35756">
        <ele>22.9</ele>
        <time>2013-01-13T08:59:56Z</time>
      </trkpt>
      <trkpt lat="49.88456" lon="2.35777">
        <ele>24.6</ele>
        <time>2013-01-13T09:00:07Z</time>
      </trkpt>
      <trkpt lat="49.88455" lon="2.35799">
        <ele>23.7</ele>
        <time>2013-01-13T09:00:17Z</time>
      </trkpt>
      <trkpt lat="49.88453" lon="2.3582">
        <ele>20.2</ele>
        <time>2013-01-13T09:00:26Z</time>
      </trkpt>
      <trkpt lat="49.88452" lon="2.35842">
        <ele>23.8</ele>
        <time>2013-01-13T09:00:35Z</time>
      </trkpt>
      <trkpt lat="49.88452" lon="2.35863">
        <ele>21.2</ele>
        <time>2013-01-13T09:00:44Z</time>
      </trkpt>
      <trkpt lat="49.88454" lon="2.35884">
        <ele>23.3</ele>
        <time>2013-01-13T09:00:53Z</time>
      </trkpt>
      <trkpt lat="49.88455" lon="2.35906">
        <ele>25.1</ele>
        <time>2013-01-13T09:01:03Z</time>
      </trkpt>
      <trkpt lat="49.88459" lon="2.35928">
        <ele>26.3</ele>
        <time>2013-01-13T09:01:14Z</time>
      </trkpt>
      <trkpt lat="49.88465" lon="2.35952">
        <ele>26.8</ele>
        <time>2013-01-13T09:01:27Z</time>
      </trkpt>
      <trkpt lat="49.88472" lon="2.3597">
        <ele>19.7</ele>
        <time>2013-01-13T09:01:39Z</time>
      </trkpt>
      <trkpt lat="49.88479" lon="2.35989">
        <ele>16.8</ele>
        <time>2013-01-13T09:01:50Z</time>
      </trkpt>
      <trkpt lat="49.88489" lon="2.36006">
        <ele>21.2</ele>
        <time>2013-01-13T09:02:00Z</time>
      </trkpt>
      <trkpt lat="49.88499" lon="2.36022">
        <ele>23.2</ele>
        <time>2013-01-13T09:02:10Z</time>
      </trkpt>
      <trkpt lat="49.88508" lon="2.36039">
        <ele>20</ele>
        <time>2013-01-13T09:02:21Z</time>
      </trkpt>
      <trkpt lat="49.88516" lon="2.36058">
        <ele>19.5</ele>
        <time>2013-01-13T09:02:32Z</time>
      </trkpt>
      <trkpt lat="49.88525" lon="2.36079">
        <ele>21.7</ele>
        <time>2013-01-13T09:02:41Z</time>
      </trkpt>
      <trkpt lat="49.88534" lon="2.36098">
        <ele>19.6</ele>
        <time>2013-01-13T09:02:53Z</time>
      </trkpt>
      <trkpt lat="49.88541" lon="2.36118">
        <ele>13.6</ele>
        <time>2013-01-13T09:03:05Z</time>
      </trkpt>
      <trkpt lat="49.88547" lon="2.36138">
        <ele>14.5</ele>
        <time>2013-01-13T09:03:16Z</time>
      </trkpt>
      <trkpt lat="49.88554" lon="2.36162">
        <ele>16.8</ele>
        <time>2013-01-13T09:03:29Z</time>
      </trkpt>
      <trkpt lat="49.8855" lon="2.36176">
        <ele>19.8</ele>
        <time>2013-01-13T09:03:41Z</time>
      </trkpt>
      <trkpt lat="49.8855" lon="2.36173">
        <ele>17.4</ele>
        <time>2013-01-13T09:03:48Z</time>
      </trkpt>
      <trkpt lat="49.88544" lon="2.36192">
        <ele>21</ele>
        <time>2013-01-13T09:04:05Z</time>
      </trkpt>
      <trkpt lat="49.88538" lon="2.36212">
        <ele>19.5</ele>
        <time>2013-01-13T09:04:16Z</time>
      </trkpt>
      <trkpt lat="49.8853" lon="2.36232">
        <ele>20.9</ele>
        <time>2013-01-13T09:04:27Z</time>
      </trkpt>
      <trkpt lat="49.88524" lon="2.36251">
        <ele>22.8</ele>
        <time>2013-01-13T09:04:39Z</time>
      </trkpt>
      <trkpt lat="49.88516" lon="2.36271">
        <ele>20.8</ele>
        <time>2013-01-13T09:04:48Z</time>
      </trkpt>
      <trkpt lat="49.88504" lon="2.36282">
        <ele>18.8</ele>
        <time>2013-01-13T09:04:58Z</time>
      </trkpt>
      <trkpt lat="49.8849" lon="2.36291">
        <ele>15.8</ele>
        <time>2013-01-13T09:05:09Z</time>
      </trkpt>
      <trkpt lat="49.88477" lon="2.36299">
        <ele>6</ele>
        <time>2013-01-13T09:05:21Z</time>
      </trkpt>
      <trkpt lat="49.88463" lon="2.36311">
        <ele>8.6</ele>
        <time>2013-01-13T09:05:31Z</time>
      </trkpt>
      <trkpt lat="49.88452" lon="2.36326">
        <ele>9.1</ele>
        <time>2013-01-13T09:05:39Z</time>
      </trkpt>
      <trkpt lat="49.88443" lon="2.36345">
        <ele>8.6</ele>
        <time>2013-01-13T09:05:48Z</time>
      </trkpt>
      <trkpt lat="49.88438" lon="2.36371">
        <ele>11.2</ele>
        <time>2013-01-13T09:05:56Z</time>
      </trkpt>
      <trkpt lat="49.88432" lon="2.36391">
        <ele>15.5</ele>
        <time>2013-01-13T09:06:06Z</time>
      </trkpt>
      <trkpt lat="49.88427" lon="2.36415">
        <ele>21.4</ele>
        <time>2013-01-13T09:06:16Z</time>
      </trkpt>
      <trkpt lat="49.88422" lon="2.36435">
        <ele>16.2</ele>
        <time>2013-01-13T09:06:28Z</time>
      </trkpt>
      <trkpt lat="49.88419" lon="2.3646">
        <ele>13.3</ele>
        <time>2013-01-13T09:06:39Z</time>
      </trkpt>
      <trkpt lat="49.88416" lon="2.36482">
        <ele>13</ele>
        <time>2013-01-13T09:06:53Z</time>
      </trkpt>
      <trkpt lat="49.88413" lon="2.36507">
        <ele>17.6</ele>
        <time>2013-01-13T09:07:07Z</time>
      </trkpt>
      <trkpt lat="49.88412" lon="2.36529">
        <ele>17.2</ele>
        <time>2013-01-13T09:07:16Z</time>
      </trkpt>
      <trkpt lat="49.8841" lon="2.3655">
        <ele>14.4</ele>
        <time>2013-01-13T09:07:26Z</time>
      </trkpt>
      <trkpt lat="49.88409" lon="2.36578">
        <ele>14.3</ele>
        <time>2013-01-13T09:07:36Z</time>
      </trkpt>
      <trkpt lat="49.88407" lon="2.366">
        <ele>19.3</ele>
        <time>2013-01-13T09:07:48Z</time>
      </trkpt>
      <trkpt lat="49.88409" lon="2.36628">
        <ele>16.3</ele>
        <time>2013-01-13T09:07:57Z</time>
      </trkpt>
      <trkpt lat="49.88408" lon="2.36649">
        <ele>18.4</ele>
        <time>2013-01-13T09:08:07Z</time>
      </trkpt>
      <trkpt lat="49.88405" lon="2.36672">
        <ele>22.8</ele>
        <time>2013-01-13T09:08:18Z</time>
      </trkpt>
      <trkpt lat="49.88405" lon="2.36695">
        <ele>28.1</ele>
        <time>2013-01-13T09:08:34Z</time>
      </trkpt>
      <trkpt lat="49.88403" lon="2.36716">
        <ele>22.9</ele>
        <time>2013-01-13T09:08:43Z</time>
      </trkpt>
      <trkpt lat="49.88403" lon="2.36738">
        <ele>17</ele>
        <time>2013-01-13T09:08:54Z</time>
      </trkpt>
      <trkpt lat="49.88401" lon="2.36759">
        <ele>20.2</ele>
        <time>2013-01-13T09:09:05Z</time>
      </trkpt>
      <trkpt lat="49.884" lon="2.36783">
        <ele>22.3</ele>
        <time>2013-01-13T09:09:16Z</time>
      </trkpt>
      <trkpt lat="49.88402" lon="2.36808">
        <ele>21.6</ele>
        <time>2013-01-13T09:09:26Z</time>
      </trkpt>
      <trkpt lat="49.88404" lon="2.36831">
        <ele>21.4</ele>
        <time>2013-01-13T09:09:37Z</time>
      </trkpt>
      <trkpt lat="49.88406" lon="2.36852">
        <ele>21.1</ele>
        <time>2013-01-13T09:09:47Z</time>
      </trkpt>
      <trkpt lat="49.88405" lon="2.36874">
        <ele>22.6</ele>
        <time>2013-01-13T09:09:57Z</time>
      </trkpt>
      <trkpt lat="49.88403" lon="2.36899">
        <ele>23</ele>
        <time>2013-01-13T09:10:09Z</time>
      </trkpt>
      <trkpt lat="49.88403" lon="2.36922">
        <ele>26.9</ele>
        <time>2013-01-13T09:10:19Z</time>
      </trkpt>
      <trkpt lat="49.88405" lon="2.36944">
        <ele>27.6</ele>
        <time>2013-01-13T09:10:29Z</time>
      </trkpt>
      <trkpt lat="49.88405" lon="2.36969">
        <ele>26.2</ele>
        <time>2013-01-13T09:10:39Z</time>
      </trkpt>
      <trkpt lat="49.88403" lon="2.36991">
        <ele>30</ele>
        <time>2013-01-13T09:10:50Z</time>
      </trkpt>
      <trkpt lat="49.88401" lon="2.37018">
        <ele>33.2</ele>
        <time>2013-01-13T09:10:59Z</time>
      </trkpt>
      <trkpt lat="49.88401" lon="2.37042">
        <ele>33.8</ele>
        <time>2013-01-13T09:11:16Z</time>
      </trkpt>
      <trkpt lat="49.88402" lon="2.37063">
        <ele>22.9</ele>
        <time>2013-01-13T09:11:26Z</time>
      </trkpt>
      <trkpt lat="49.88399" lon="2.37084">
        <ele>16.1</ele>
        <time>2013-01-13T09:11:34Z</time>
      </trkpt>
      <trkpt lat="49.88394" lon="2.37105">
        <ele>25.9</ele>
        <time>2013-01-13T09:11:47Z</time>
      </trkpt>
      <trkpt lat="49.88396" lon="2.37125">
        <ele>28.2</ele>
        <time>2013-01-13T09:11:53Z</time>
      </trkpt>
      <trkpt lat="49.88396" lon="2.37135">
        <ele>30.9</ele>
        <time>2013-01-13T09:12:00Z</time>
      </trkpt>
      <trkpt lat="49.88385" lon="2.3715">
        <ele>31.5</ele>
        <time>2013-01-13T09:12:21Z</time>
      </trkpt>
      <trkpt lat="49.88376" lon="2.37209">
        <ele>22.1</ele>
        <time>2013-01-13T09:12:45Z</time>
      </trkpt>
      <trkpt lat="49.88376" lon="2.37209">
        <ele>22.1</ele>
        <time>2013-01-13T09:16:25Z</time>
      </trkpt>
      <trkpt lat="49.88372" lon="2.37248">
        <ele>20.5</ele>
        <time>2013-01-13T09:16:38Z</time>
      </trkpt>
      <trkpt lat="49.88362" lon="2.37264">
        <ele>20.8</ele>
        <time>2013-01-13T09:16:56Z</time>
      </trkpt>
      <trkpt lat="49.88353" lon="2.37282">
        <ele>24</ele>
        <time>2013-01-13T09:17:07Z</time>
      </trkpt>
      <trkpt lat="49.88349" lon="2.37305">
        <ele>22.5</ele>
        <time>2013-01-13T09:17:16Z</time>
      </trkpt>
      <trkpt lat="49.88348" lon="2.3733">
        <ele>16</ele>
        <time>2013-01-13T09:17:28Z</time>
      </trkpt>
      <trkpt lat="49.8835" lon="2.37352">
        <ele>16</ele>
        <time>2013-01-13T09:17:38Z</time>
      </trkpt>
      <trkpt lat="49.88351" lon="2.37374">
        <ele>21.7</ele>
        <time>2013-01-13T09:17:50Z</time>
      </trkpt>
      <trkpt lat="49.88358" lon="2.37393">
        <ele>22.2</ele>
        <time>2013-01-13T09:17:59Z</time>
      </trkpt>
      <trkpt lat="49.8836" lon="2.37414">
        <ele>16.8</ele>
        <time>2013-01-13T09:18:09Z</time>
      </trkpt>
      <trkpt lat="49.88368" lon="2.37432">
        <ele>21.1</ele>
        <time>2013-01-13T09:18:20Z</time>
      </trkpt>
      <trkpt lat="49.88378" lon="2.37446">
        <ele>26.7</ele>
        <time>2013-01-13T09:18:31Z</time>
      </trkpt>
      <trkpt lat="49.88392" lon="2.37454">
        <ele>23.8</ele>
        <time>2013-01-13T09:18:40Z</time>
      </trkpt>
      <trkpt lat="49.88405" lon="2.37462">
        <ele>20.1</ele>
        <time>2013-01-13T09:18:50Z</time>
      </trkpt>
      <trkpt lat="49.88415" lon="2.37476">
        <ele>16.4</ele>
        <time>2013-01-13T09:19:00Z</time>
      </trkpt>
      <trkpt lat="49.88426" lon="2.3749">
        <ele>13.5</ele>
        <time>2013-01-13T09:19:08Z</time>
      </trkpt>
      <trkpt lat="49.88439" lon="2.37505">
        <ele>18.5</ele>
        <time>2013-01-13T09:19:17Z</time>
      </trkpt>
      <trkpt lat="49.88446" lon="2.37525">
        <ele>22.7</ele>
        <time>2013-01-13T09:19:28Z</time>
      </trkpt>
      <trkpt lat="49.88455" lon="2.37544">
        <ele>28.2</ele>
        <time>2013-01-13T09:19:38Z</time>
      </trkpt>
      <trkpt lat="49.88459" lon="2.37565">
        <ele>32.5</ele>
        <time>2013-01-13T09:19:48Z</time>
      </trkpt>
      <trkpt lat="49.88468" lon="2.37587">
        <ele>33.6</ele>
        <time>2013-01-13T09:20:00Z</time>
      </trkpt>
      <trkpt lat="49.88474" lon="2.37609">
        <ele>28.3</ele>
        <time>2013-01-13T09:20:12Z</time>
      </trkpt>
      <trkpt lat="49.88482" lon="2.37626">
        <ele>25.5</ele>
        <time>2013-01-13T09:20:21Z</time>
      </trkpt>
      <trkpt lat="49.88487" lon="2.37647">
        <ele>22.3</ele>
        <time>2013-01-13T09:20:30Z</time>
      </trkpt>
      <trkpt lat="49.88494" lon="2.37669">
        <ele>22.6</ele>
        <time>2013-01-13T09:20:41Z</time>
      </trkpt>
      <trkpt lat="49.88495" lon="2.37691">
        <ele>21.7</ele>
        <time>2013-01-13T09:20:53Z</time>
      </trkpt>
      <trkpt lat="49.88498" lon="2.37713">
        <ele>25.7</ele>
        <time>2013-01-13T09:21:03Z</time>
      </trkpt>
      <trkpt lat="49.885" lon="2.37742">
        <ele>23.6</ele>
        <time>2013-01-13T09:21:13Z</time>
      </trkpt>
      <trkpt lat="49.88504" lon="2.37762">
        <ele>25.5</ele>
        <time>2013-01-13T09:21:26Z</time>
      </trkpt>
      <trkpt lat="49.88508" lon="2.37783">
        <ele>20.5</ele>
        <time>2013-01-13T09:21:36Z</time>
      </trkpt>
      <trkpt lat="49.88511" lon="2.37805">
        <ele>16.6</ele>
        <time>2013-01-13T09:21:46Z</time>
      </trkpt>
      <trkpt lat="49.88509" lon="2.37826">
        <ele>21.9</ele>
        <time>2013-01-13T09:21:55Z</time>
      </trkpt>
      <trkpt lat="49.8851" lon="2.37852">
        <ele>17</ele>
        <time>2013-01-13T09:22:07Z</time>
      </trkpt>
      <trkpt lat="49.88511" lon="2.37874">
        <ele>18.2</ele>
        <time>2013-01-13T09:22:20Z</time>
      </trkpt>
      <trkpt lat="49.88513" lon="2.37898">
        <ele>16.8</ele>
        <time>2013-01-13T09:22:28Z</time>
      </trkpt>
      <trkpt lat="49.88512" lon="2.37922">
        <ele>15.1</ele>
        <time>2013-01-13T09:22:38Z</time>
      </trkpt>
      <trkpt lat="49.88514" lon="2.37946">
        <ele>10.8</ele>
        <time>2013-01-13T09:22:50Z</time>
      </trkpt>
      <trkpt lat="49.88515" lon="2.37973">
        <ele>15.8</ele>
        <time>2013-01-13T09:23:01Z</time>
      </trkpt>
      <trkpt lat="49.88516" lon="2.37996">
        <ele>21.7</ele>
        <time>2013-01-13T09:23:15Z</time>
      </trkpt>
      <trkpt lat="49.88514" lon="2.38017">
        <ele>25.2</ele>
        <time>2013-01-13T09:23:26Z</time>
      </trkpt>
      <trkpt lat="49.88512" lon="2.38041">
        <ele>28.7</ele>
        <time>2013-01-13T09:23:37Z</time>
      </trkpt>
      <trkpt lat="49.88506" lon="2.38065">
        <ele>27</ele>
        <time>2013-01-13T09:23:49Z</time>
      </trkpt>
      <trkpt lat="49.88505" lon="2.38089">
        <ele>18.9</ele>
        <time>2013-01-13T09:24:00Z</time>
      </trkpt>
      <trkpt lat="49.88506" lon="2.38111">
        <ele>13.9</ele>
        <time>2013-01-13T09:24:12Z</time>
      </trkpt>
      <trkpt lat="49.88505" lon="2.38132">
        <ele>9.6</ele>
        <time>2013-01-13T09:24:24Z</time>
      </trkpt>
      <trkpt lat="49.88505" lon="2.38155">
        <ele>7.4</ele>
        <time>2013-01-13T09:24:33Z</time>
      </trkpt>
      <trkpt lat="49.885" lon="2.38179">
        <ele>8.7</ele>
        <time>2013-01-13T09:24:45Z</time>
      </trkpt>
      <trkpt lat="49.88495" lon="2.38198">
        <ele>13</ele>
        <time>2013-01-13T09:24:54Z</time>
      </trkpt>
      <trkpt lat="49.88491" lon="2.3822">
        <ele>18.7</ele>
        <time>2013-01-13T09:25:05Z</time>
      </trkpt>
      <trkpt lat="49.88487" lon="2.3824">
        <ele>19.4</ele>
        <time>2013-01-13T09:25:15Z</time>
      </trkpt>
      <trkpt lat="49.88481" lon="2.3826">
        <ele>11.1</ele>
        <time>2013-01-13T09:25:25Z</time>
      </trkpt>
      <trkpt lat="49.88475" lon="2.38279">
        <ele>16.5</ele>
        <time>2013-01-13T09:25:33Z</time>
      </trkpt>
      <trkpt lat="49.88469" lon="2.38299">
        <ele>22.5</ele>
        <time>2013-01-13T09:25:44Z</time>
      </trkpt>
      <trkpt lat="49.88463" lon="2.38318">
        <ele>28.7</ele>
        <time>2013-01-13T09:25:54Z</time>
      </trkpt>
      <trkpt lat="49.88456" lon="2.38337">
        <ele>27.8</ele>
        <time>2013-01-13T09:26:03Z</time>
      </trkpt>
      <trkpt lat="49.88447" lon="2.38359">
        <ele>25.5</ele>
        <time>2013-01-13T09:26:13Z</time>
      </trkpt>
      <trkpt lat="49.88441" lon="2.38378">
        <ele>26.9</ele>
        <time>2013-01-13T09:26:23Z</time>
      </trkpt>
      <trkpt lat="49.88434" lon="2.38397">
        <ele>23.3</ele>
        <time>2013-01-13T09:26:35Z</time>
      </trkpt>
      <trkpt lat="49.88428" lon="2.38417">
        <ele>19.2</ele>
        <time>2013-01-13T09:26:47Z</time>
      </trkpt>
      <trkpt lat="49.88425" lon="2.38438">
        <ele>15.5</ele>
        <time>2013-01-13T09:26:57Z</time>
      </trkpt>
      <trkpt lat="49.88422" lon="2.3846">
        <ele>21.7</ele>
        <time>2013-01-13T09:27:11Z</time>
      </trkpt>
      <trkpt lat="49.88419" lon="2.38481">
        <ele>23.4</ele>
        <time>2013-01-13T09:27:22Z</time>
      </trkpt>
      <trkpt lat="49.8842" lon="2.38507">
        <ele>16.1</ele>
        <time>2013-01-13T09:27:34Z</time>
      </trkpt>
      <trkpt lat="49.88419" lon="2.38528">
        <ele>15.6</ele>
        <time>2013-01-13T09:27:43Z</time>
      </trkpt>
      <trkpt lat="49.8842" lon="2.3855">
        <ele>18.5</ele>
        <time>2013-01-13T09:27:53Z</time>
      </trkpt>
      <trkpt lat="49.88424" lon="2.38573">
        <ele>20.5</ele>
        <time>2013-01-13T09:28:05Z</time>
      </trkpt>
      <trkpt lat="49.88427" lon="2.38597">
        <ele>22</ele>
        <time>2013-01-13T09:28:15Z</time>
      </trkpt>
      <trkpt lat="49.8843" lon="2.38621">
        <ele>20.1</ele>
        <time>2013-01-13T09:28:28Z</time>
      </trkpt>
      <trkpt lat="49.88432" lon="2.38648">
        <ele>15.8</ele>
        <time>2013-01-13T09:28:39Z</time>
      </trkpt>
      <trkpt lat="49.88434" lon="2.38672">
        <ele>17.1</ele>
        <time>2013-01-13T09:28:52Z</time>
      </trkpt>
      <trkpt lat="49.88432" lon="2.38694">
        <ele>15.5</ele>
        <time>2013-01-13T09:29:01Z</time>
      </trkpt>
      <trkpt lat="49.8843" lon="2.38716">
        <ele>9.7</ele>
        <time>2013-01-13T09:29:11Z</time>
      </trkpt>
      <trkpt lat="49.88426" lon="2.38737">
        <ele>9.7</ele>
        <time>2013-01-13T09:29:22Z</time>
      </trkpt>
      <trkpt lat="49.88422" lon="2.38758">
        <ele>9.1</ele>
        <time>2013-01-13T09:29:31Z</time>
      </trkpt>
      <trkpt lat="49.88416" lon="2.38778">
        <ele>14.6</ele>
        <time>2013-01-13T09:29:41Z</time>
      </trkpt>
      <trkpt lat="49.8841" lon="2.38798">
        <ele>20.6</ele>
        <time>2013-01-13T09:29:52Z</time>
      </trkpt>
      <trkpt lat="49.88404" lon="2.38817">
        <ele>16.3</ele>
        <time>2013-01-13T09:30:04Z</time>
      </trkpt>
      <trkpt lat="49.88399" lon="2.38838">
        <ele>17.3</ele>
        <time>2013-01-13T09:30:13Z</time>
      </trkpt>
      <trkpt lat="49.88394" lon="2.3886">
        <ele>18.5</ele>
        <time>2013-01-13T09:30:23Z</time>
      </trkpt>
      <trkpt lat="49.88391" lon="2.3888">
        <ele>19.8</ele>
        <time>2013-01-13T09:30:34Z</time>
      </trkpt>
      <trkpt lat="49.88392" lon="2.38904">
        <ele>21.2</ele>
        <time>2013-01-13T09:30:46Z</time>
      </trkpt>
      <trkpt lat="49.88392" lon="2.38925">
        <ele>9.3</ele>
        <time>2013-01-13T09:31:03Z</time>
      </trkpt>
      <trkpt lat="49.88392" lon="2.38948">
        <ele>8.6</ele>
        <time>2013-01-13T09:31:16Z</time>
      </trkpt>
      <trkpt lat="49.88396" lon="2.38969">
        <ele>5.6</ele>
        <time>2013-01-13T09:31:27Z</time>
      </trkpt>
      <trkpt lat="49.88403" lon="2.38989">
        <ele>8.4</ele>
        <time>2013-01-13T09:31:37Z</time>
      </trkpt>
      <trkpt lat="49.88408" lon="2.39009">
        <ele>9.3</ele>
        <time>2013-01-13T09:31:46Z</time>
      </trkpt>
      <trkpt lat="49.88417" lon="2.39027">
        <ele>3.5</ele>
        <time>2013-01-13T09:31:54Z</time>
      </trkpt>
      <trkpt lat="49.88427" lon="2.39044">
        <ele>5.7</ele>
        <time>2013-01-13T09:32:02Z</time>
      </trkpt>
      <trkpt lat="49.88425" lon="2.39088">
        <ele>18.9</ele>
        <time>2013-01-13T09:32:23Z</time>
      </trkpt>
      <trkpt lat="49.88425" lon="2.39088">
        <ele>18.9</ele>
        <time>2013-01-13T09:33:09Z</time>
      </trkpt>
      <trkpt lat="49.88403" lon="2.39139">
        <ele>15.5</ele>
        <time>2013-01-13T09:33:36Z</time>
      </trkpt>
      <trkpt lat="49.88403" lon="2.39139">
        <ele>15.5</ele>
        <time>2013-01-13T09:47:05Z</time>
      </trkpt>
      <trkpt lat="49.88381" lon="2.39184">
        <ele>4.7</ele>
        <time>2013-01-13T09:47:17Z</time>
      </trkpt>
      <trkpt lat="49.88381" lon="2.39184">
        <ele>4.7</ele>
        <time>2013-01-13T09:48:20Z</time>
      </trkpt>
      <trkpt lat="49.88372" lon="2.39199">
        <ele>4.5</ele>
        <time>2013-01-13T09:48:20Z</time>
      </trkpt>
      <trkpt lat="49.88368" lon="2.3922">
        <ele>4.6</ele>
        <time>2013-01-13T09:48:29Z</time>
      </trkpt>
      <trkpt lat="49.8837" lon="2.39241">
        <ele>10.5</ele>
        <time>2013-01-13T09:48:40Z</time>
      </trkpt>
      <trkpt lat="49.88368" lon="2.39263">
        <ele>18.5</ele>
        <time>2013-01-13T09:48:55Z</time>
      </trkpt>
      <trkpt lat="49.8837" lon="2.39286">
        <ele>24.4</ele>
        <time>2013-01-13T09:49:05Z</time>
      </trkpt>
      <trkpt lat="49.88373" lon="2.39307">
        <ele>22.5</ele>
        <time>2013-01-13T09:49:15Z</time>
      </trkpt>
      <trkpt lat="49.88379" lon="2.3933">
        <ele>25.5</ele>
        <time>2013-01-13T09:49:28Z</time>
      </trkpt>
      <trkpt lat="49.88383" lon="2.39353">
        <ele>17</ele>
        <time>2013-01-13T09:49:40Z</time>
      </trkpt>
      <trkpt lat="49.88388" lon="2.39375">
        <ele>15</ele>
        <time>2013-01-13T09:49:50Z</time>
      </trkpt>
      <trkpt lat="49.88394" lon="2.39394">
        <ele>17.8</ele>
        <time>2013-01-13T09:50:00Z</time>
      </trkpt>
      <trkpt lat="49.88399" lon="2.39414">
        <ele>13.8</ele>
        <time>2013-01-13T09:50:09Z</time>
      </trkpt>
      <trkpt lat="49.88404" lon="2.3944">
        <ele>17.5</ele>
        <time>2013-01-13T09:50:19Z</time>
      </trkpt>
      <trkpt lat="49.88409" lon="2.3946">
        <ele>15.8</ele>
        <time>2013-01-13T09:50:30Z</time>
      </trkpt>
      <trkpt lat="49.88413" lon="2.39482">
        <ele>20.3</ele>
        <time>2013-01-13T09:50:39Z</time>
      </trkpt>
      <trkpt lat="49.88415" lon="2.39502">
        <ele>17.1</ele>
        <time>2013-01-13T09:50:49Z</time>
      </trkpt>
      <trkpt lat="49.88417" lon="2.39525">
        <ele>20.1</ele>
        <time>2013-01-13T09:50:58Z</time>
      </trkpt>
      <trkpt lat="49.88421" lon="2.39546">
        <ele>19.6</ele>
        <time>2013-01-13T09:51:08Z</time>
      </trkpt>
      <trkpt lat="49.88424" lon="2.39567">
        <ele>19</ele>
        <time>2013-01-13T09:51:18Z</time>
      </trkpt>
      <trkpt lat="49.88424" lon="2.39588">
        <ele>15.1</ele>
        <time>2013-01-13T09:51:27Z</time>
      </trkpt>
      <trkpt lat="49.88427" lon="2.39609">
        <ele>16.8</ele>
        <time>2013-01-13T09:51:37Z</time>
      </trkpt>
      <trkpt lat="49.88429" lon="2.39629">
        <ele>18.8</ele>
        <time>2013-01-13T09:51:46Z</time>
      </trkpt>
      <trkpt lat="49.8843" lon="2.39652">
        <ele>21</ele>
        <time>2013-01-13T09:51:57Z</time>
      </trkpt>
      <trkpt lat="49.88431" lon="2.39674">
        <ele>18.2</ele>
        <time>2013-01-13T09:52:08Z</time>
      </trkpt>
      <trkpt lat="49.88432" lon="2.39697">
        <ele>12.8</ele>
        <time>2013-01-13T09:52:18Z</time>
      </trkpt>
      <trkpt lat="49.88429" lon="2.39721">
        <ele>2.7</ele>
        <time>2013-01-13T09:52:31Z</time>
      </trkpt>
      <trkpt lat="49.88433" lon="2.39743">
        <ele>24.4</ele>
        <time>2013-01-13T09:52:42Z</time>
      </trkpt>
      <trkpt lat="49.88432" lon="2.39766">
        <ele>24.5</ele>
        <time>2013-01-13T09:52:51Z</time>
      </trkpt>
      <trkpt lat="49.88434" lon="2.39788">
        <ele>24.4</ele>
        <time>2013-01-13T09:53:01Z</time>
      </trkpt>
      <trkpt lat="49.88438" lon="2.39809">
        <ele>24.2</ele>
        <time>2013-01-13T09:53:11Z</time>
      </trkpt>
      <trkpt lat="49.88438" lon="2.3983">
        <ele>24.2</ele>
        <time>2013-01-13T09:53:20Z</time>
      </trkpt>
      <trkpt lat="49.88439" lon="2.39851">
        <ele>0.9</ele>
        <time>2013-01-13T09:53:30Z</time>
      </trkpt>
      <trkpt lat="49.88439" lon="2.39873">
        <ele>2.2</ele>
        <time>2013-01-13T09:53:38Z</time>
      </trkpt>
      <trkpt lat="49.88441" lon="2.39895">
        <ele>3.9</ele>
        <time>2013-01-13T09:53:48Z</time>
      </trkpt>
      <trkpt lat="49.88448" lon="2.39918">
        <ele>9.7</ele>
        <time>2013-01-13T09:54:00Z</time>
      </trkpt>
      <trkpt lat="49.88449" lon="2.39941">
        <ele>14.9</ele>
        <time>2013-01-13T09:54:10Z</time>
      </trkpt>
      <trkpt lat="49.88452" lon="2.39965">
        <ele>10</ele>
        <time>2013-01-13T09:54:21Z</time>
      </trkpt>
      <trkpt lat="49.88454" lon="2.39986">
        <ele>6.5</ele>
        <time>2013-01-13T09:54:31Z</time>
      </trkpt>
      <trkpt lat="49.88459" lon="2.40007">
        <ele>8.3</ele>
        <time>2013-01-13T09:54:42Z</time>
      </trkpt>
      <trkpt lat="49.88461" lon="2.40028">
        <ele>13.4</ele>
        <time>2013-01-13T09:54:52Z</time>
      </trkpt>
      <trkpt lat="49.8846" lon="2.4005">
        <ele>11.5</ele>
        <time>2013-01-13T09:55:02Z</time>
      </trkpt>
      <trkpt lat="49.88461" lon="2.40071">
        <ele>10.5</ele>
        <time>2013-01-13T09:55:12Z</time>
      </trkpt>
      <trkpt lat="49.88461" lon="2.40096">
        <ele>12.7</ele>
        <time>2013-01-13T09:55:21Z</time>
      </trkpt>
      <trkpt lat="49.88457" lon="2.40116">
        <ele>9.3</ele>
        <time>2013-01-13T09:55:29Z</time>
      </trkpt>
      <trkpt lat="49.88455" lon="2.40136">
        <ele>5.9</ele>
        <time>2013-01-13T09:55:37Z</time>
      </trkpt>
      <trkpt lat="49.88458" lon="2.40158">
        <ele>0.4</ele>
        <time>2013-01-13T09:55:50Z</time>
      </trkpt>
      <trkpt lat="49.8846" lon="2.40166">
        <ele>5</ele>
        <time>2013-01-13T09:55:54Z</time>
      </trkpt>
      <trkpt lat="49.88466" lon="2.40179">
        <ele>3.6</ele>
        <time>2013-01-13T09:56:07Z</time>
      </trkpt>
      <trkpt lat="49.88462" lon="2.40201">
        <ele>2.2</ele>
        <time>2013-01-13T09:56:17Z</time>
      </trkpt>
      <trkpt lat="49.88464" lon="2.40223">
        <ele>8.1</ele>
        <time>2013-01-13T09:56:27Z</time>
      </trkpt>
      <trkpt lat="49.88467" lon="2.40246">
        <ele>5.3</ele>
        <time>2013-01-13T09:56:39Z</time>
      </trkpt>
      <trkpt lat="49.88472" lon="2.40269">
        <ele>7.4</ele>
        <time>2013-01-13T09:56:51Z</time>
      </trkpt>
      <trkpt lat="49.88474" lon="2.40292">
        <ele>9.6</ele>
        <time>2013-01-13T09:57:00Z</time>
      </trkpt>
      <trkpt lat="49.88475" lon="2.40313">
        <ele>13.4</ele>
        <time>2013-01-13T09:57:09Z</time>
      </trkpt>
      <trkpt lat="49.88476" lon="2.40334">
        <ele>16.7</ele>
        <time>2013-01-13T09:57:17Z</time>
      </trkpt>
      <trkpt lat="49.88474" lon="2.40357">
        <ele>16.7</ele>
        <time>2013-01-13T09:57:29Z</time>
      </trkpt>
      <trkpt lat="49.88472" lon="2.4038">
        <ele>6.4</ele>
        <time>2013-01-13T09:57:38Z</time>
      </trkpt>
      <trkpt lat="49.8847" lon="2.40401">
        <ele>0.7</ele>
        <time>2013-01-13T09:57:50Z</time>
      </trkpt>
      <trkpt lat="49.88475" lon="2.40429">
        <ele>7.9</ele>
        <time>2013-01-13T09:58:02Z</time>
      </trkpt>
      <trkpt lat="49.8848" lon="2.40449">
        <ele>11.1</ele>
        <time>2013-01-13T09:58:14Z</time>
      </trkpt>
      <trkpt lat="49.8848" lon="2.40461">
        <ele>13.5</ele>
        <time>2013-01-13T09:58:20Z</time>
      </trkpt>
      <trkpt lat="49.88486" lon="2.40481">
        <ele>10.6</ele>
        <time>2013-01-13T09:58:28Z</time>
      </trkpt>
      <trkpt lat="49.88488" lon="2.40508">
        <ele>10.3</ele>
        <time>2013-01-13T09:58:53Z</time>
      </trkpt>
      <trkpt lat="49.88485" lon="2.40534">
        <ele>8.8</ele>
        <time>2013-01-13T09:59:00Z</time>
      </trkpt>
      <trkpt lat="49.8849" lon="2.40553">
        <ele>15.7</ele>
        <time>2013-01-13T09:59:11Z</time>
      </trkpt>
      <trkpt lat="49.88496" lon="2.40574">
        <ele>15.1</ele>
        <time>2013-01-13T09:59:19Z</time>
      </trkpt>
      <trkpt lat="49.88503" lon="2.40593">
        <ele>14.4</ele>
        <time>2013-01-13T09:59:29Z</time>
      </trkpt>
      <trkpt lat="49.88508" lon="2.40617">
        <ele>13.6</ele>
        <time>2013-01-13T09:59:42Z</time>
      </trkpt>
      <trkpt lat="49.88511" lon="2.40638">
        <ele>17.4</ele>
        <time>2013-01-13T09:59:50Z</time>
      </trkpt>
      <trkpt lat="49.8851" lon="2.40659">
        <ele>20.2</ele>
        <time>2013-01-13T09:59:59Z</time>
      </trkpt>
      <trkpt lat="49.88514" lon="2.40681">
        <ele>21.8</ele>
        <time>2013-01-13T10:00:10Z</time>
      </trkpt>
      <trkpt lat="49.88518" lon="2.40702">
        <ele>19.1</ele>
        <time>2013-01-13T10:00:21Z</time>
      </trkpt>
      <trkpt lat="49.88517" lon="2.40724">
        <ele>17.2</ele>
        <time>2013-01-13T10:00:30Z</time>
      </trkpt>
      <trkpt lat="49.88524" lon="2.40745">
        <ele>17.9</ele>
        <time>2013-01-13T10:00:41Z</time>
      </trkpt>
      <trkpt lat="49.8853" lon="2.40764">
        <ele>19.2</ele>
        <time>2013-01-13T10:00:51Z</time>
      </trkpt>
      <trkpt lat="49.88528" lon="2.40785">
        <ele>16.2</ele>
        <time>2013-01-13T10:01:01Z</time>
      </trkpt>
      <trkpt lat="49.88529" lon="2.40809">
        <ele>15.6</ele>
        <time>2013-01-13T10:01:12Z</time>
      </trkpt>
      <trkpt lat="49.88528" lon="2.4083">
        <ele>16.5</ele>
        <time>2013-01-13T10:01:25Z</time>
      </trkpt>
      <trkpt lat="49.88532" lon="2.40852">
        <ele>13.8</ele>
        <time>2013-01-13T10:01:35Z</time>
      </trkpt>
      <trkpt lat="49.88541" lon="2.40868">
        <ele>18.6</ele>
        <time>2013-01-13T10:01:46Z</time>
      </trkpt>
      <trkpt lat="49.88548" lon="2.40849">
        <ele>21.9</ele>
        <time>2013-01-13T10:02:14Z</time>
      </trkpt>
      <trkpt lat="49.88547" lon="2.40826">
        <ele>19.8</ele>
        <time>2013-01-13T10:02:22Z</time>
      </trkpt>
      <trkpt lat="49.88547" lon="2.40805">
        <ele>21</ele>
        <time>2013-01-13T10:02:31Z</time>
      </trkpt>
      <trkpt lat="49.88547" lon="2.40782">
        <ele>19.7</ele>
        <time>2013-01-13T10:02:42Z</time>
      </trkpt>
      <trkpt lat="49.88545" lon="2.40761">
        <ele>16.8</ele>
        <time>2013-01-13T10:03:00Z</time>
      </trkpt>
      <trkpt lat="49.88547" lon="2.4074">
        <ele>21</ele>
        <time>2013-01-13T10:03:11Z</time>
      </trkpt>
      <trkpt lat="49.88553" lon="2.4072">
        <ele>26.3</ele>
        <time>2013-01-13T10:03:21Z</time>
      </trkpt>
      <trkpt lat="49.88555" lon="2.40698">
        <ele>30.9</ele>
        <time>2013-01-13T10:03:31Z</time>
      </trkpt>
      <trkpt lat="49.88556" lon="2.40675">
        <ele>30</ele>
        <time>2013-01-13T10:03:43Z</time>
      </trkpt>
      <trkpt lat="49.88558" lon="2.40653">
        <ele>27.7</ele>
        <time>2013-01-13T10:03:53Z</time>
      </trkpt>
      <trkpt lat="49.88558" lon="2.40632">
        <ele>27.1</ele>
        <time>2013-01-13T10:04:04Z</time>
      </trkpt>
      <trkpt lat="49.88557" lon="2.4061">
        <ele>27.8</ele>
        <time>2013-01-13T10:04:16Z</time>
      </trkpt>
      <trkpt lat="49.88561" lon="2.40584">
        <ele>17.7</ele>
        <time>2013-01-13T10:04:27Z</time>
      </trkpt>
      <trkpt lat="49.88563" lon="2.40562">
        <ele>19</ele>
        <time>2013-01-13T10:04:41Z</time>
      </trkpt>
      <trkpt lat="49.88565" lon="2.40541">
        <ele>12.7</ele>
        <time>2013-01-13T10:04:50Z</time>
      </trkpt>
      <trkpt lat="49.8857" lon="2.40521">
        <ele>20.7</ele>
        <time>2013-01-13T10:04:58Z</time>
      </trkpt>
      <trkpt lat="49.88578" lon="2.40502">
        <ele>18.3</ele>
        <time>2013-01-13T10:05:07Z</time>
      </trkpt>
      <trkpt lat="49.88582" lon="2.40476">
        <ele>21.4</ele>
        <time>2013-01-13T10:05:17Z</time>
      </trkpt>
      <trkpt lat="49.88579" lon="2.4045">
        <ele>29.3</ele>
        <time>2013-01-13T10:05:27Z</time>
      </trkpt>
      <trkpt lat="49.88578" lon="2.40423">
        <ele>32.7</ele>
        <time>2013-01-13T10:05:40Z</time>
      </trkpt>
      <trkpt lat="49.88577" lon="2.40399">
        <ele>30.3</ele>
        <time>2013-01-13T10:05:52Z</time>
      </trkpt>
      <trkpt lat="49.88578" lon="2.40377">
        <ele>31.9</ele>
        <time>2013-01-13T10:06:03Z</time>
      </trkpt>
      <trkpt lat="49.88577" lon="2.40355">
        <ele>28.3</ele>
        <time>2013-01-13T10:06:13Z</time>
      </trkpt>
      <trkpt lat="49.88574" lon="2.40334">
        <ele>28.6</ele>
        <time>2013-01-13T10:06:23Z</time>
      </trkpt>
      <trkpt lat="49.88574" lon="2.40311">
        <ele>28.4</ele>
        <time>2013-01-13T10:06:34Z</time>
      </trkpt>
      <trkpt lat="49.88573" lon="2.40283">
        <ele>29.7</ele>
        <time>2013-01-13T10:06:44Z</time>
      </trkpt>
      <trkpt lat="49.88571" lon="2.40261">
        <ele>23.3</ele>
        <time>2013-01-13T10:06:58Z</time>
      </trkpt>
      <trkpt lat="49.88569" lon="2.40239">
        <ele>26.6</ele>
        <time>2013-01-13T10:07:08Z</time>
      </trkpt>
      <trkpt lat="49.8857" lon="2.40217">
        <ele>22</ele>
        <time>2013-01-13T10:07:16Z</time>
      </trkpt>
      <trkpt lat="49.8857" lon="2.40196">
        <ele>27.6</ele>
        <time>2013-01-13T10:07:27Z</time>
      </trkpt>
      <trkpt lat="49.88568" lon="2.40174">
        <ele>23</ele>
        <time>2013-01-13T10:07:36Z</time>
      </trkpt>
      <trkpt lat="49.88567" lon="2.40153">
        <ele>28.1</ele>
        <time>2013-01-13T10:07:50Z</time>
      </trkpt>
      <trkpt lat="49.88564" lon="2.4013">
        <ele>27.5</ele>
        <time>2013-01-13T10:07:59Z</time>
      </trkpt>
      <trkpt lat="49.88557" lon="2.40109">
        <ele>23.7</ele>
        <time>2013-01-13T10:08:08Z</time>
      </trkpt>
      <trkpt lat="49.88554" lon="2.40087">
        <ele>26</ele>
        <time>2013-01-13T10:08:18Z</time>
      </trkpt>
      <trkpt lat="49.88553" lon="2.40065">
        <ele>26.5</ele>
        <time>2013-01-13T10:08:26Z</time>
      </trkpt>
      <trkpt lat="49.88551" lon="2.40044">
        <ele>23.6</ele>
        <time>2013-01-13T10:08:38Z</time>
      </trkpt>
      <trkpt lat="49.88551" lon="2.40022">
        <ele>21.7</ele>
        <time>2013-01-13T10:08:47Z</time>
      </trkpt>
      <trkpt lat="49.88552" lon="2.40001">
        <ele>19.9</ele>
        <time>2013-01-13T10:08:59Z</time>
      </trkpt>
      <trkpt lat="49.8855" lon="2.3998">
        <ele>23.6</ele>
        <time>2013-01-13T10:09:09Z</time>
      </trkpt>
      <trkpt lat="49.88548" lon="2.39956">
        <ele>23.2</ele>
        <time>2013-01-13T10:09:21Z</time>
      </trkpt>
      <trkpt lat="49.88546" lon="2.39936">
        <ele>28</ele>
        <time>2013-01-13T10:09:30Z</time>
      </trkpt>
      <trkpt lat="49.88544" lon="2.39913">
        <ele>27.1</ele>
        <time>2013-01-13T10:09:39Z</time>
      </trkpt>
      <trkpt lat="49.88542" lon="2.39892">
        <ele>25</ele>
        <time>2013-01-13T10:09:50Z</time>
      </trkpt>
      <trkpt lat="49.88539" lon="2.3987">
        <ele>25.2</ele>
        <time>2013-01-13T10:09:59Z</time>
      </trkpt>
      <trkpt lat="49.88536" lon="2.39843">
        <ele>27.5</ele>
        <time>2013-01-13T10:10:08Z</time>
      </trkpt>
      <trkpt lat="49.88536" lon="2.3982">
        <ele>32.1</ele>
        <time>2013-01-13T10:10:22Z</time>
      </trkpt>
      <trkpt lat="49.88533" lon="2.39799">
        <ele>23.7</ele>
        <time>2013-01-13T10:10:31Z</time>
      </trkpt>
      <trkpt lat="49.88531" lon="2.39777">
        <ele>26.6</ele>
        <time>2013-01-13T10:10:40Z</time>
      </trkpt>
      <trkpt lat="49.88531" lon="2.39756">
        <ele>20.9</ele>
        <time>2013-01-13T10:10:50Z</time>
      </trkpt>
      <trkpt lat="49.88531" lon="2.39733">
        <ele>21.8</ele>
        <time>2013-01-13T10:11:03Z</time>
      </trkpt>
      <trkpt lat="49.8853" lon="2.39711">
        <ele>20.7</ele>
        <time>2013-01-13T10:11:15Z</time>
      </trkpt>
      <trkpt lat="49.88526" lon="2.39689">
        <ele>20.1</ele>
        <time>2013-01-13T10:11:25Z</time>
      </trkpt>
      <trkpt lat="49.88523" lon="2.39667">
        <ele>20.1</ele>
        <time>2013-01-13T10:11:35Z</time>
      </trkpt>
      <trkpt lat="49.88521" lon="2.39645">
        <ele>16.7</ele>
        <time>2013-01-13T10:11:45Z</time>
      </trkpt>
      <trkpt lat="49.88518" lon="2.39623">
        <ele>13.3</ele>
        <time>2013-01-13T10:11:56Z</time>
      </trkpt>
      <trkpt lat="49.88514" lon="2.39601">
        <ele>15.1</ele>
        <time>2013-01-13T10:12:06Z</time>
      </trkpt>
      <trkpt lat="49.88506" lon="2.39579">
        <ele>12.8</ele>
        <time>2013-01-13T10:12:15Z</time>
      </trkpt>
      <trkpt lat="49.88521" lon="2.39565">
        <ele>22.8</ele>
        <time>2013-01-13T10:12:38Z</time>
      </trkpt>
      <trkpt lat="49.8852" lon="2.39544">
        <ele>24.6</ele>
        <time>2013-01-13T10:12:51Z</time>
      </trkpt>
      <trkpt lat="49.88516" lon="2.39524">
        <ele>24</ele>
        <time>2013-01-13T10:13:01Z</time>
      </trkpt>
      <trkpt lat="49.88511" lon="2.39504">
        <ele>23.5</ele>
        <time>2013-01-13T10:13:10Z</time>
      </trkpt>
      <trkpt lat="49.88507" lon="2.39482">
        <ele>22.5</ele>
        <time>2013-01-13T10:13:21Z</time>
      </trkpt>
      <trkpt lat="49.88504" lon="2.39462">
        <ele>22.2</ele>
        <time>2013-01-13T10:13:31Z</time>
      </trkpt>
      <trkpt lat="49.88503" lon="2.3944">
        <ele>25.8</ele>
        <time>2013-01-13T10:13:42Z</time>
      </trkpt>
      <trkpt lat="49.88504" lon="2.39417">
        <ele>28</ele>
        <time>2013-01-13T10:13:52Z</time>
      </trkpt>
      <trkpt lat="49.88505" lon="2.39395">
        <ele>25.5</ele>
        <time>2013-01-13T10:14:04Z</time>
      </trkpt>
      <trkpt lat="49.88503" lon="2.39372">
        <ele>28.7</ele>
        <time>2013-01-13T10:14:14Z</time>
      </trkpt>
      <trkpt lat="49.88506" lon="2.39348">
        <ele>15.6</ele>
        <time>2013-01-13T10:14:27Z</time>
      </trkpt>
      <trkpt lat="49.88505" lon="2.39326">
        <ele>19.6</ele>
        <time>2013-01-13T10:14:37Z</time>
      </trkpt>
      <trkpt lat="49.88503" lon="2.39304">
        <ele>24.1</ele>
        <time>2013-01-13T10:14:48Z</time>
      </trkpt>
      <trkpt lat="49.88498" lon="2.39283">
        <ele>26</ele>
        <time>2013-01-13T10:14:57Z</time>
      </trkpt>
      <trkpt lat="49.88498" lon="2.39262">
        <ele>29.1</ele>
        <time>2013-01-13T10:15:06Z</time>
      </trkpt>
      <trkpt lat="49.88498" lon="2.3924">
        <ele>27.7</ele>
        <time>2013-01-13T10:15:16Z</time>
      </trkpt>
      <trkpt lat="49.88497" lon="2.39218">
        <ele>28.2</ele>
        <time>2013-01-13T10:15:28Z</time>
      </trkpt>
      <trkpt lat="49.88499" lon="2.39197">
        <ele>26</ele>
        <time>2013-01-13T10:15:38Z</time>
      </trkpt>
      <trkpt lat="49.88498" lon="2.39176">
        <ele>23.8</ele>
        <time>2013-01-13T10:15:47Z</time>
      </trkpt>
      <trkpt lat="49.88499" lon="2.39153">
        <ele>21.4</ele>
        <time>2013-01-13T10:15:57Z</time>
      </trkpt>
      <trkpt lat="49.88499" lon="2.39132">
        <ele>19.2</ele>
        <time>2013-01-13T10:16:06Z</time>
      </trkpt>
      <trkpt lat="49.885" lon="2.39111">
        <ele>17</ele>
        <time>2013-01-13T10:16:15Z</time>
      </trkpt>
      <trkpt lat="49.88503" lon="2.3909">
        <ele>15.2</ele>
        <time>2013-01-13T10:16:25Z</time>
      </trkpt>
      <trkpt lat="49.88503" lon="2.39068">
        <ele>14</ele>
        <time>2013-01-13T10:16:34Z</time>
      </trkpt>
      <trkpt lat="49.88507" lon="2.39041">
        <ele>15.8</ele>
        <time>2013-01-13T10:16:46Z</time>
      </trkpt>
      <trkpt lat="49.88511" lon="2.39014">
        <ele>22.1</ele>
        <time>2013-01-13T10:17:00Z</time>
      </trkpt>
      <trkpt lat="49.88515" lon="2.38989">
        <ele>24.8</ele>
        <time>2013-01-13T10:17:09Z</time>
      </trkpt>
      <trkpt lat="49.88517" lon="2.38968">
        <ele>24</ele>
        <time>2013-01-13T10:17:20Z</time>
      </trkpt>
      <trkpt lat="49.88519" lon="2.38947">
        <ele>22.9</ele>
        <time>2013-01-13T10:17:30Z</time>
      </trkpt>
      <trkpt lat="49.88526" lon="2.38927">
        <ele>22.6</ele>
        <time>2013-01-13T10:17:41Z</time>
      </trkpt>
      <trkpt lat="49.88529" lon="2.38904">
        <ele>23.4</ele>
        <time>2013-01-13T10:17:52Z</time>
      </trkpt>
      <trkpt lat="49.88533" lon="2.38884">
        <ele>25.4</ele>
        <time>2013-01-13T10:18:02Z</time>
      </trkpt>
      <trkpt lat="49.88538" lon="2.38863">
        <ele>22.2</ele>
        <time>2013-01-13T10:18:12Z</time>
      </trkpt>
      <trkpt lat="49.88541" lon="2.3884">
        <ele>25.5</ele>
        <time>2013-01-13T10:18:23Z</time>
      </trkpt>
      <trkpt lat="49.88543" lon="2.38819">
        <ele>22.9</ele>
        <time>2013-01-13T10:18:32Z</time>
      </trkpt>
      <trkpt lat="49.88547" lon="2.38798">
        <ele>25.7</ele>
        <time>2013-01-13T10:18:41Z</time>
      </trkpt>
      <trkpt lat="49.88552" lon="2.38777">
        <ele>23</ele>
        <time>2013-01-13T10:18:52Z</time>
      </trkpt>
      <trkpt lat="49.88558" lon="2.38756">
        <ele>28</ele>
        <time>2013-01-13T10:19:03Z</time>
      </trkpt>
      <trkpt lat="49.88563" lon="2.38736">
        <ele>28.1</ele>
        <time>2013-01-13T10:19:12Z</time>
      </trkpt>
      <trkpt lat="49.8857" lon="2.38717">
        <ele>26.1</ele>
        <time>2013-01-13T10:19:22Z</time>
      </trkpt>
      <trkpt lat="49.88573" lon="2.38696">
        <ele>24.2</ele>
        <time>2013-01-13T10:19:32Z</time>
      </trkpt>
      <trkpt lat="49.88575" lon="2.38674">
        <ele>23</ele>
        <time>2013-01-13T10:19:42Z</time>
      </trkpt>
      <trkpt lat="49.88576" lon="2.38652">
        <ele>23.3</ele>
        <time>2013-01-13T10:19:53Z</time>
      </trkpt>
      <trkpt lat="49.88576" lon="2.38626">
        <ele>23.3</ele>
        <time>2013-01-13T10:20:02Z</time>
      </trkpt>
      <trkpt lat="49.88576" lon="2.38604">
        <ele>25.4</ele>
        <time>2013-01-13T10:20:12Z</time>
      </trkpt>
      <trkpt lat="49.88576" lon="2.38582">
        <ele>27.9</ele>
        <time>2013-01-13T10:20:21Z</time>
      </trkpt>
      <trkpt lat="49.88578" lon="2.38559">
        <ele>29</ele>
        <time>2013-01-13T10:20:31Z</time>
      </trkpt>
      <trkpt lat="49.88579" lon="2.38536">
        <ele>29.9</ele>
        <time>2013-01-13T10:20:40Z</time>
      </trkpt>
      <trkpt lat="49.88581" lon="2.38514">
        <ele>30.9</ele>
        <time>2013-01-13T10:20:49Z</time>
      </trkpt>
      <trkpt lat="49.8858" lon="2.38493">
        <ele>22.6</ele>
        <time>2013-01-13T10:21:00Z</time>
      </trkpt>
      <trkpt lat="49.88582" lon="2.38473">
        <ele>19.2</ele>
        <time>2013-01-13T10:21:11Z</time>
      </trkpt>
      <trkpt lat="49.88587" lon="2.38452">
        <ele>18.6</ele>
        <time>2013-01-13T10:21:21Z</time>
      </trkpt>
      <trkpt lat="49.88589" lon="2.3843">
        <ele>21.3</ele>
        <time>2013-01-13T10:21:33Z</time>
      </trkpt>
      <trkpt lat="49.8859" lon="2.38407">
        <ele>22.4</ele>
        <time>2013-01-13T10:21:43Z</time>
      </trkpt>
      <trkpt lat="49.88593" lon="2.38386">
        <ele>19.6</ele>
        <time>2013-01-13T10:21:53Z</time>
      </trkpt>
      <trkpt lat="49.88598" lon="2.38366">
        <ele>22.7</ele>
        <time>2013-01-13T10:22:03Z</time>
      </trkpt>
      <trkpt lat="49.88601" lon="2.38344">
        <ele>25.3</ele>
        <time>2013-01-13T10:22:14Z</time>
      </trkpt>
      <trkpt lat="49.88607" lon="2.38323">
        <ele>28</ele>
        <time>2013-01-13T10:22:26Z</time>
      </trkpt>
      <trkpt lat="49.88611" lon="2.38302">
        <ele>24.4</ele>
        <time>2013-01-13T10:22:36Z</time>
      </trkpt>
      <trkpt lat="49.88614" lon="2.38282">
        <ele>24.5</ele>
        <time>2013-01-13T10:22:44Z</time>
      </trkpt>
      <trkpt lat="49.88619" lon="2.38261">
        <ele>24.6</ele>
        <time>2013-01-13T10:22:56Z</time>
      </trkpt>
      <trkpt lat="49.88623" lon="2.3824">
        <ele>24.4</ele>
        <time>2013-01-13T10:23:11Z</time>
      </trkpt>
      <trkpt lat="49.88626" lon="2.38218">
        <ele>24.1</ele>
        <time>2013-01-13T10:23:21Z</time>
      </trkpt>
      <trkpt lat="49.88633" lon="2.382">
        <ele>23.7</ele>
        <time>2013-01-13T10:23:33Z</time>
      </trkpt>
      <trkpt lat="49.88638" lon="2.3818">
        <ele>23.3</ele>
        <time>2013-01-13T10:23:45Z</time>
      </trkpt>
      <trkpt lat="49.88641" lon="2.38158">
        <ele>22.9</ele>
        <time>2013-01-13T10:23:58Z</time>
      </trkpt>
      <trkpt lat="49.88648" lon="2.38134">
        <ele>22.6</ele>
        <time>2013-01-13T10:24:08Z</time>
      </trkpt>
      <trkpt lat="49.88654" lon="2.38112">
        <ele>22.1</ele>
        <time>2013-01-13T10:24:23Z</time>
      </trkpt>
      <trkpt lat="49.88662" lon="2.38092">
        <ele>13.6</ele>
        <time>2013-01-13T10:24:40Z</time>
      </trkpt>
      <trkpt lat="49.88666" lon="2.38072">
        <ele>17</ele>
        <time>2013-01-13T10:25:05Z</time>
      </trkpt>
      <trkpt lat="49.8867" lon="2.38051">
        <ele>19.3</ele>
        <time>2013-01-13T10:25:16Z</time>
      </trkpt>
      <trkpt lat="49.88676" lon="2.38032">
        <ele>21.9</ele>
        <time>2013-01-13T10:25:28Z</time>
      </trkpt>
      <trkpt lat="49.88679" lon="2.3801">
        <ele>25.2</ele>
        <time>2013-01-13T10:25:43Z</time>
      </trkpt>
      <trkpt lat="49.88682" lon="2.37989">
        <ele>24.6</ele>
        <time>2013-01-13T10:25:52Z</time>
      </trkpt>
      <trkpt lat="49.88686" lon="2.37967">
        <ele>26.5</ele>
        <time>2013-01-13T10:26:07Z</time>
      </trkpt>
      <trkpt lat="49.8869" lon="2.37946">
        <ele>19.2</ele>
        <time>2013-01-13T10:26:17Z</time>
      </trkpt>
      <trkpt lat="49.88694" lon="2.37925">
        <ele>22.6</ele>
        <time>2013-01-13T10:26:27Z</time>
      </trkpt>
      <trkpt lat="49.88703" lon="2.37908">
        <ele>22.5</ele>
        <time>2013-01-13T10:26:37Z</time>
      </trkpt>
      <trkpt lat="49.88711" lon="2.37887">
        <ele>16</ele>
        <time>2013-01-13T10:26:48Z</time>
      </trkpt>
      <trkpt lat="49.8872" lon="2.37868">
        <ele>5.9</ele>
        <time>2013-01-13T10:27:00Z</time>
      </trkpt>
      <trkpt lat="49.88728" lon="2.37857">
        <ele>11.2</ele>
        <time>2013-01-13T10:27:07Z</time>
      </trkpt>
      <trkpt lat="49.8873" lon="2.37836">
        <ele>16</ele>
        <time>2013-01-13T10:27:15Z</time>
      </trkpt>
      <trkpt lat="49.88738" lon="2.37818">
        <ele>18</ele>
        <time>2013-01-13T10:27:24Z</time>
      </trkpt>
      <trkpt lat="49.88741" lon="2.37797">
        <ele>18.2</ele>
        <time>2013-01-13T10:27:34Z</time>
      </trkpt>
      <trkpt lat="49.88747" lon="2.37779">
        <ele>18.4</ele>
        <time>2013-01-13T10:27:43Z</time>
      </trkpt>
      <trkpt lat="49.88758" lon="2.37764">
        <ele>19.6</ele>
        <time>2013-01-13T10:27:53Z</time>
      </trkpt>
      <trkpt lat="49.88766" lon="2.37745">
        <ele>21.6</ele>
        <time>2013-01-13T10:28:04Z</time>
      </trkpt>
      <trkpt lat="49.88774" lon="2.37727">
        <ele>23</ele>
        <time>2013-01-13T10:28:14Z</time>
      </trkpt>
      <trkpt lat="49.88782" lon="2.37705">
        <ele>22.6</ele>
        <time>2013-01-13T10:28:26Z</time>
      </trkpt>
      <trkpt lat="49.88791" lon="2.37689">
        <ele>18.8</ele>
        <time>2013-01-13T10:28:36Z</time>
      </trkpt>
      <trkpt lat="49.88798" lon="2.3767">
        <ele>17.2</ele>
        <time>2013-01-13T10:28:48Z</time>
      </trkpt>
      <trkpt lat="49.88805" lon="2.37647">
        <ele>12.5</ele>
        <time>2013-01-13T10:29:03Z</time>
      </trkpt>
      <trkpt lat="49.8881" lon="2.37626">
        <ele>22.3</ele>
        <time>2013-01-13T10:29:17Z</time>
      </trkpt>
      <trkpt lat="49.88815" lon="2.37606">
        <ele>16.9</ele>
        <time>2013-01-13T10:29:25Z</time>
      </trkpt>
      <trkpt lat="49.88817" lon="2.37585">
        <ele>10.9</ele>
        <time>2013-01-13T10:29:35Z</time>
      </trkpt>
      <trkpt lat="49.88821" lon="2.37564">
        <ele>10.1</ele>
        <time>2013-01-13T10:29:45Z</time>
      </trkpt>
      <trkpt lat="49.88829" lon="2.37544">
        <ele>13</ele>
        <time>2013-01-13T10:29:54Z</time>
      </trkpt>
      <trkpt lat="49.88833" lon="2.37523">
        <ele>16.3</ele>
        <time>2013-01-13T10:30:06Z</time>
      </trkpt>
      <trkpt lat="49.88837" lon="2.37503">
        <ele>14.7</ele>
        <time>2013-01-13T10:30:16Z</time>
      </trkpt>
      <trkpt lat="49.88844" lon="2.37481">
        <ele>13.7</ele>
        <time>2013-01-13T10:30:27Z</time>
      </trkpt>
      <trkpt lat="49.88846" lon="2.3746">
        <ele>19.4</ele>
        <time>2013-01-13T10:30:39Z</time>
      </trkpt>
      <trkpt lat="49.88852" lon="2.37418">
        <ele>20.3</ele>
        <time>2013-01-13T10:30:54Z</time>
      </trkpt>
      <trkpt lat="49.88852" lon="2.37418">
        <ele>20.3</ele>
        <time>2013-01-13T10:32:10Z</time>
      </trkpt>
      <trkpt lat="49.88854" lon="2.37399">
        <ele>17.5</ele>
        <time>2013-01-13T10:32:12Z</time>
      </trkpt>
      <trkpt lat="49.88856" lon="2.37376">
        <ele>20.1</ele>
        <time>2013-01-13T10:32:22Z</time>
      </trkpt>
      <trkpt lat="49.88857" lon="2.37355">
        <ele>11.7</ele>
        <time>2013-01-13T10:32:31Z</time>
      </trkpt>
      <trkpt lat="49.88862" lon="2.37335">
        <ele>15.2</ele>
        <time>2013-01-13T10:32:40Z</time>
      </trkpt>
      <trkpt lat="49.88869" lon="2.37314">
        <ele>20.9</ele>
        <time>2013-01-13T10:32:52Z</time>
      </trkpt>
      <trkpt lat="49.88873" lon="2.37292">
        <ele>23.5</ele>
        <time>2013-01-13T10:33:01Z</time>
      </trkpt>
      <trkpt lat="49.88876" lon="2.37271">
        <ele>21.4</ele>
        <time>2013-01-13T10:33:10Z</time>
      </trkpt>
      <trkpt lat="49.88881" lon="2.37251">
        <ele>24.1</ele>
        <time>2013-01-13T10:33:21Z</time>
      </trkpt>
      <trkpt lat="49.88885" lon="2.37231">
        <ele>23.2</ele>
        <time>2013-01-13T10:33:32Z</time>
      </trkpt>
      <trkpt lat="49.88887" lon="2.37209">
        <ele>19.8</ele>
        <time>2013-01-13T10:33:41Z</time>
      </trkpt>
      <trkpt lat="49.88888" lon="2.37187">
        <ele>22.8</ele>
        <time>2013-01-13T10:33:52Z</time>
      </trkpt>
      <trkpt lat="49.88891" lon="2.37166">
        <ele>24.9</ele>
        <time>2013-01-13T10:34:01Z</time>
      </trkpt>
      <trkpt lat="49.88894" lon="2.37144">
        <ele>17.3</ele>
        <time>2013-01-13T10:34:13Z</time>
      </trkpt>
      <trkpt lat="49.88897" lon="2.37124">
        <ele>19.8</ele>
        <time>2013-01-13T10:34:24Z</time>
      </trkpt>
      <trkpt lat="49.88897" lon="2.371">
        <ele>19.3</ele>
        <time>2013-01-13T10:34:34Z</time>
      </trkpt>
      <trkpt lat="49.88898" lon="2.37079">
        <ele>15.6</ele>
        <time>2013-01-13T10:34:45Z</time>
      </trkpt>
      <trkpt lat="49.88897" lon="2.37057">
        <ele>17.5</ele>
        <time>2013-01-13T10:34:54Z</time>
      </trkpt>
      <trkpt lat="49.88897" lon="2.37036">
        <ele>19.5</ele>
        <time>2013-01-13T10:35:04Z</time>
      </trkpt>
      <trkpt lat="49.88895" lon="2.37014">
        <ele>19.9</ele>
        <time>2013-01-13T10:35:14Z</time>
      </trkpt>
      <trkpt lat="49.88896" lon="2.36991">
        <ele>16.4</ele>
        <time>2013-01-13T10:35:24Z</time>
      </trkpt>
      <trkpt lat="49.88896" lon="2.36969">
        <ele>19</ele>
        <time>2013-01-13T10:35:33Z</time>
      </trkpt>
      <trkpt lat="49.88895" lon="2.36948">
        <ele>21.3</ele>
        <time>2013-01-13T10:35:41Z</time>
      </trkpt>
      <trkpt lat="49.88893" lon="2.36926">
        <ele>24</ele>
        <time>2013-01-13T10:35:50Z</time>
      </trkpt>
      <trkpt lat="49.88894" lon="2.36904">
        <ele>23.4</ele>
        <time>2013-01-13T10:36:01Z</time>
      </trkpt>
      <trkpt lat="49.88895" lon="2.36882">
        <ele>24.4</ele>
        <time>2013-01-13T10:36:12Z</time>
      </trkpt>
      <trkpt lat="49.88895" lon="2.3686">
        <ele>16.5</ele>
        <time>2013-01-13T10:36:23Z</time>
      </trkpt>
      <trkpt lat="49.88894" lon="2.36837">
        <ele>21.8</ele>
        <time>2013-01-13T10:36:34Z</time>
      </trkpt>
      <trkpt lat="49.88892" lon="2.36814">
        <ele>24</ele>
        <time>2013-01-13T10:36:45Z</time>
      </trkpt>
      <trkpt lat="49.88889" lon="2.36793">
        <ele>25.3</ele>
        <time>2013-01-13T10:36:52Z</time>
      </trkpt>
      <trkpt lat="49.88888" lon="2.36771">
        <ele>27.3</ele>
        <time>2013-01-13T10:37:02Z</time>
      </trkpt>
      <trkpt lat="49.88887" lon="2.3675">
        <ele>23.2</ele>
        <time>2013-01-13T10:37:11Z</time>
      </trkpt>
      <trkpt lat="49.88887" lon="2.36728">
        <ele>18.7</ele>
        <time>2013-01-13T10:37:22Z</time>
      </trkpt>
      <trkpt lat="49.88887" lon="2.36705">
        <ele>13.5</ele>
        <time>2013-01-13T10:37:39Z</time>
      </trkpt>
      <trkpt lat="49.88891" lon="2.36684">
        <ele>14.4</ele>
        <time>2013-01-13T10:37:50Z</time>
      </trkpt>
      <trkpt lat="49.88889" lon="2.36663">
        <ele>17.6</ele>
        <time>2013-01-13T10:38:00Z</time>
      </trkpt>
      <trkpt lat="49.88888" lon="2.36643">
        <ele>19.9</ele>
        <time>2013-01-13T10:38:08Z</time>
      </trkpt>
      <trkpt lat="49.88885" lon="2.36621">
        <ele>21.6</ele>
        <time>2013-01-13T10:38:17Z</time>
      </trkpt>
      <trkpt lat="49.88885" lon="2.36598">
        <ele>19.5</ele>
        <time>2013-01-13T10:38:27Z</time>
      </trkpt>
      <trkpt lat="49.88884" lon="2.36577">
        <ele>20.3</ele>
        <time>2013-01-13T10:38:36Z</time>
      </trkpt>
      <trkpt lat="49.8888" lon="2.36555">
        <ele>20.9</ele>
        <time>2013-01-13T10:38:45Z</time>
      </trkpt>
      <trkpt lat="49.88876" lon="2.36535">
        <ele>16.8</ele>
        <time>2013-01-13T10:38:54Z</time>
      </trkpt>
      <trkpt lat="49.88872" lon="2.36515">
        <ele>18</ele>
        <time>2013-01-13T10:39:03Z</time>
      </trkpt>
      <trkpt lat="49.8887" lon="2.36491">
        <ele>18.7</ele>
        <time>2013-01-13T10:39:17Z</time>
      </trkpt>
      <trkpt lat="49.88863" lon="2.36471">
        <ele>16.9</ele>
        <time>2013-01-13T10:39:27Z</time>
      </trkpt>
      <trkpt lat="49.88862" lon="2.36448">
        <ele>22</ele>
        <time>2013-01-13T10:39:37Z</time>
      </trkpt>
      <trkpt lat="49.8886" lon="2.36427">
        <ele>23.5</ele>
        <time>2013-01-13T10:39:45Z</time>
      </trkpt>
      <trkpt lat="49.88857" lon="2.36398">
        <ele>21.9</ele>
        <time>2013-01-13T10:39:57Z</time>
      </trkpt>
      <trkpt lat="49.88851" lon="2.36371">
        <ele>21</ele>
        <time>2013-01-13T10:40:10Z</time>
      </trkpt>
      <trkpt lat="49.88847" lon="2.36349">
        <ele>20.8</ele>
        <time>2013-01-13T10:40:23Z</time>
      </trkpt>
      <trkpt lat="49.88845" lon="2.36328">
        <ele>19</ele>
        <time>2013-01-13T10:40:37Z</time>
      </trkpt>
      <trkpt lat="49.88839" lon="2.36306">
        <ele>23</ele>
        <time>2013-01-13T10:40:47Z</time>
      </trkpt>
      <trkpt lat="49.88835" lon="2.36286">
        <ele>22.4</ele>
        <time>2013-01-13T10:40:55Z</time>
      </trkpt>
      <trkpt lat="49.8883" lon="2.36265">
        <ele>19</ele>
        <time>2013-01-13T10:41:05Z</time>
      </trkpt>
      <trkpt lat="49.88826" lon="2.36242">
        <ele>20.5</ele>
        <time>2013-01-13T10:41:16Z</time>
      </trkpt>
      <trkpt lat="49.88822" lon="2.36221">
        <ele>22</ele>
        <time>2013-01-13T10:41:26Z</time>
      </trkpt>
      <trkpt lat="49.88818" lon="2.36199">
        <ele>22.7</ele>
        <time>2013-01-13T10:41:37Z</time>
      </trkpt>
      <trkpt lat="49.88813" lon="2.3618">
        <ele>23.4</ele>
        <time>2013-01-13T10:41:47Z</time>
      </trkpt>
      <trkpt lat="49.88808" lon="2.3616">
        <ele>24.1</ele>
        <time>2013-01-13T10:41:57Z</time>
      </trkpt>
      <trkpt lat="49.88802" lon="2.36135">
        <ele>20.4</ele>
        <time>2013-01-13T10:42:09Z</time>
      </trkpt>
      <trkpt lat="49.88799" lon="2.36112">
        <ele>21.5</ele>
        <time>2013-01-13T10:42:21Z</time>
      </trkpt>
      <trkpt lat="49.88795" lon="2.36091">
        <ele>22.5</ele>
        <time>2013-01-13T10:42:32Z</time>
      </trkpt>
      <trkpt lat="49.88791" lon="2.3607">
        <ele>23</ele>
        <time>2013-01-13T10:42:41Z</time>
      </trkpt>
      <trkpt lat="49.88787" lon="2.36049">
        <ele>15.9</ele>
        <time>2013-01-13T10:42:49Z</time>
      </trkpt>
      <trkpt lat="49.88783" lon="2.36028">
        <ele>16.7</ele>
        <time>2013-01-13T10:43:00Z</time>
      </trkpt>
      <trkpt lat="49.8878" lon="2.36008">
        <ele>21.6</ele>
        <time>2013-01-13T10:43:11Z</time>
      </trkpt>
      <trkpt lat="49.88775" lon="2.35981">
        <ele>19.5</ele>
        <time>2013-01-13T10:43:20Z</time>
      </trkpt>
      <trkpt lat="49.88771" lon="2.35959">
        <ele>21.4</ele>
        <time>2013-01-13T10:43:33Z</time>
      </trkpt>
      <trkpt lat="49.88768" lon="2.35937">
        <ele>18.9</ele>
        <time>2013-01-13T10:43:44Z</time>
      </trkpt>
      <trkpt lat="49.88764" lon="2.35914">
        <ele>17.6</ele>
        <time>2013-01-13T10:43:53Z</time>
      </trkpt>
      <trkpt lat="49.88761" lon="2.35893">
        <ele>20.2</ele>
        <time>2013-01-13T10:44:03Z</time>
      </trkpt>
      <trkpt lat="49.88759" lon="2.35872">
        <ele>23.6</ele>
        <time>2013-01-13T10:44:15Z</time>
      </trkpt>
      <trkpt lat="49.88756" lon="2.35849">
        <ele>18</ele>
        <time>2013-01-13T10:44:25Z</time>
      </trkpt>
      <trkpt lat="49.88752" lon="2.35829">
        <ele>18.3</ele>
        <time>2013-01-13T10:44:35Z</time>
      </trkpt>
      <trkpt lat="49.88749" lon="2.35809">
        <ele>19.8</ele>
        <time>2013-01-13T10:44:47Z</time>
      </trkpt>
      <trkpt lat="49.88745" lon="2.35787">
        <ele>21</ele>
        <time>2013-01-13T10:44:57Z</time>
      </trkpt>
      <trkpt lat="49.88741" lon="2.35764">
        <ele>19.2</ele>
        <time>2013-01-13T10:45:07Z</time>
      </trkpt>
      <trkpt lat="49.88739" lon="2.35743">
        <ele>20.9</ele>
        <time>2013-01-13T10:45:17Z</time>
      </trkpt>
      <trkpt lat="49.88733" lon="2.35722">
        <ele>19.4</ele>
        <time>2013-01-13T10:45:26Z</time>
      </trkpt>
      <trkpt lat="49.88729" lon="2.35701">
        <ele>17.6</ele>
        <time>2013-01-13T10:45:37Z</time>
      </trkpt>
      <trkpt lat="49.88725" lon="2.35679">
        <ele>17.5</ele>
        <time>2013-01-13T10:45:48Z</time>
      </trkpt>
      <trkpt lat="49.88724" lon="2.35656">
        <ele>19.6</ele>
        <time>2013-01-13T10:45:58Z</time>
      </trkpt>
      <trkpt lat="49.8872" lon="2.35631">
        <ele>19.2</ele>
        <time>2013-01-13T10:46:11Z</time>
      </trkpt>
      <trkpt lat="49.88716" lon="2.35609">
        <ele>16</ele>
        <time>2013-01-13T10:46:22Z</time>
      </trkpt>
      <trkpt lat="49.88713" lon="2.35588">
        <ele>20.4</ele>
        <time>2013-01-13T10:46:31Z</time>
      </trkpt>
      <trkpt lat="49.88711" lon="2.35565">
        <ele>25.1</ele>
        <time>2013-01-13T10:46:39Z</time>
      </trkpt>
      <trkpt lat="49.88712" lon="2.35543">
        <ele>27.9</ele>
        <time>2013-01-13T10:46:46Z</time>
      </trkpt>
      <trkpt lat="49.88708" lon="2.35523">
        <ele>27.5</ele>
        <time>2013-01-13T10:46:59Z</time>
      </trkpt>
      <trkpt lat="49.88705" lon="2.35501">
        <ele>25</ele>
        <time>2013-01-13T10:47:09Z</time>
      </trkpt>
      <trkpt lat="49.88699" lon="2.35481">
        <ele>22.9</ele>
        <time>2013-01-13T10:47:19Z</time>
      </trkpt>
      <trkpt lat="49.88694" lon="2.3546">
        <ele>26.3</ele>
        <time>2013-01-13T10:47:29Z</time>
      </trkpt>
      <trkpt lat="49.88689" lon="2.35436">
        <ele>30.5</ele>
        <time>2013-01-13T10:47:41Z</time>
      </trkpt>
      <trkpt lat="49.88686" lon="2.35413">
        <ele>25.7</ele>
        <time>2013-01-13T10:47:50Z</time>
      </trkpt>
      <trkpt lat="49.8868" lon="2.35392">
        <ele>23.6</ele>
        <time>2013-01-13T10:48:01Z</time>
      </trkpt>
      <trkpt lat="49.88676" lon="2.35372">
        <ele>22.1</ele>
        <time>2013-01-13T10:48:11Z</time>
      </trkpt>
      <trkpt lat="49.8867" lon="2.35351">
        <ele>20.4</ele>
        <time>2013-01-13T10:48:23Z</time>
      </trkpt>
      <trkpt lat="49.88663" lon="2.35326">
        <ele>24.8</ele>
        <time>2013-01-13T10:48:34Z</time>
      </trkpt>
      <trkpt lat="49.88657" lon="2.35308">
        <ele>26</ele>
        <time>2013-01-13T10:48:44Z</time>
      </trkpt>
      <trkpt lat="49.88651" lon="2.35284">
        <ele>28</ele>
        <time>2013-01-13T10:48:54Z</time>
      </trkpt>
      <trkpt lat="49.88643" lon="2.3526">
        <ele>23.5</ele>
        <time>2013-01-13T10:49:03Z</time>
      </trkpt>
      <trkpt lat="49.88638" lon="2.35241">
        <ele>26.1</ele>
        <time>2013-01-13T10:49:17Z</time>
      </trkpt>
      <trkpt lat="49.88631" lon="2.35221">
        <ele>25.9</ele>
        <time>2013-01-13T10:49:26Z</time>
      </trkpt>
      <trkpt lat="49.88624" lon="2.35202">
        <ele>17.2</ele>
        <time>2013-01-13T10:49:38Z</time>
      </trkpt>
      <trkpt lat="49.88621" lon="2.35181">
        <ele>25.3</ele>
        <time>2013-01-13T10:50:02Z</time>
      </trkpt>
      <trkpt lat="49.88616" lon="2.35161">
        <ele>23.8</ele>
        <time>2013-01-13T10:50:13Z</time>
      </trkpt>
      <trkpt lat="49.88609" lon="2.35142">
        <ele>22</ele>
        <time>2013-01-13T10:50:25Z</time>
      </trkpt>
      <trkpt lat="49.88603" lon="2.35117">
        <ele>27.1</ele>
        <time>2013-01-13T10:50:48Z</time>
      </trkpt>
      <trkpt lat="49.88598" lon="2.35096">
        <ele>21.1</ele>
        <time>2013-01-13T10:51:01Z</time>
      </trkpt>
      <trkpt lat="49.88595" lon="2.35075">
        <ele>22.9</ele>
        <time>2013-01-13T10:51:14Z</time>
      </trkpt>
      <trkpt lat="49.8859" lon="2.35053">
        <ele>24.5</ele>
        <time>2013-01-13T10:51:24Z</time>
      </trkpt>
      <trkpt lat="49.88586" lon="2.35031">
        <ele>24.7</ele>
        <time>2013-01-13T10:51:34Z</time>
      </trkpt>
      <trkpt lat="49.88582" lon="2.35009">
        <ele>19.7</ele>
        <time>2013-01-13T10:51:48Z</time>
      </trkpt>
      <trkpt lat="49.88568" lon="2.35006">
        <ele>24.5</ele>
        <time>2013-01-13T10:52:00Z</time>
      </trkpt>
      <trkpt lat="49.88555" lon="2.35013">
        <ele>21.9</ele>
        <time>2013-01-13T10:52:11Z</time>
      </trkpt>
      <trkpt lat="49.88542" lon="2.35008">
        <ele>20.5</ele>
        <time>2013-01-13T10:52:22Z</time>
      </trkpt>
      <trkpt lat="49.88536" lon="2.35011">
        <ele>20.1</ele>
        <time>2013-01-13T10:52:25Z</time>
      </trkpt>
      <trkpt lat="49.88524" lon="2.35023">
        <ele>17.8</ele>
        <time>2013-01-13T10:52:34Z</time>
      </trkpt>
      <trkpt lat="49.88513" lon="2.3504">
        <ele>22.2</ele>
        <time>2013-01-13T10:52:49Z</time>
      </trkpt>
      <trkpt lat="49.88501" lon="2.35051">
        <ele>22.2</ele>
        <time>2013-01-13T10:53:07Z</time>
      </trkpt>
      <trkpt lat="49.88489" lon="2.3506">
        <ele>20.5</ele>
        <time>2013-01-13T10:53:18Z</time>
      </trkpt>
      <trkpt lat="49.88485" lon="2.35066">
        <ele>21.2</ele>
        <time>2013-01-13T10:53:23Z</time>
      </trkpt>
      <trkpt lat="49.88476" lon="2.35049">
        <ele>20.4</ele>
        <time>2013-01-13T10:53:33Z</time>
      </trkpt>
      <trkpt lat="49.88472" lon="2.35029">
        <ele>19.5</ele>
        <time>2013-01-13T10:53:42Z</time>
      </trkpt>
      <trkpt lat="49.88467" lon="2.35008">
        <ele>17.9</ele>
        <time>2013-01-13T10:53:51Z</time>
      </trkpt>
      <trkpt lat="49.8846" lon="2.34991">
        <ele>15.2</ele>
        <time>2013-01-13T10:54:02Z</time>
      </trkpt>
      <trkpt lat="49.88455" lon="2.34969">
        <ele>12.4</ele>
        <time>2013-01-13T10:54:14Z</time>
      </trkpt>
      <trkpt lat="49.88447" lon="2.34948">
        <ele>14.7</ele>
        <time>2013-01-13T10:54:26Z</time>
      </trkpt>
      <trkpt lat="49.88442" lon="2.34926">
        <ele>17.8</ele>
        <time>2013-01-13T10:54:33Z</time>
      </trkpt>
      <trkpt lat="49.88435" lon="2.34906">
        <ele>14</ele>
        <time>2013-01-13T10:54:42Z</time>
      </trkpt>
      <trkpt lat="49.8842" lon="2.34881">
        <ele>16</ele>
        <time>2013-01-13T10:54:52Z</time>
      </trkpt>
      <trkpt lat="49.88408" lon="2.34869">
        <ele>17.7</ele>
        <time>2013-01-13T10:55:07Z</time>
      </trkpt>
      <trkpt lat="49.88395" lon="2.34862">
        <ele>15.4</ele>
        <time>2013-01-13T10:55:18Z</time>
      </trkpt>
      <trkpt lat="49.8838" lon="2.34851">
        <ele>17.9</ele>
        <time>2013-01-13T10:55:29Z</time>
      </trkpt>
      <trkpt lat="49.88367" lon="2.34843">
        <ele>19.6</ele>
        <time>2013-01-13T10:55:38Z</time>
      </trkpt>
      <trkpt lat="49.88355" lon="2.34827">
        <ele>17.8</ele>
        <time>2013-01-13T10:55:50Z</time>
      </trkpt>
      <trkpt lat="49.88342" lon="2.3481">
        <ele>19.5</ele>
        <time>2013-01-13T10:56:01Z</time>
      </trkpt>
      <trkpt lat="49.88334" lon="2.34791">
        <ele>26.2</ele>
        <time>2013-01-13T10:56:14Z</time>
      </trkpt>
      <trkpt lat="49.88326" lon="2.34771">
        <ele>17.7</ele>
        <time>2013-01-13T10:56:23Z</time>
      </trkpt>
      <trkpt lat="49.88318" lon="2.34753">
        <ele>20.3</ele>
        <time>2013-01-13T10:56:32Z</time>
      </trkpt>
      <trkpt lat="49.88314" lon="2.34733">
        <ele>18.4</ele>
        <time>2013-01-13T10:56:41Z</time>
      </trkpt>
      <trkpt lat="49.88313" lon="2.34711">
        <ele>21</ele>
        <time>2013-01-13T10:56:50Z</time>
      </trkpt>
      <trkpt lat="49.8831" lon="2.34689">
        <ele>23.9</ele>
        <time>2013-01-13T10:57:00Z</time>
      </trkpt>
      <trkpt lat="49.88305" lon="2.34667">
        <ele>20</ele>
        <time>2013-01-13T10:57:10Z</time>
      </trkpt>
      <trkpt lat="49.883" lon="2.34648">
        <ele>22.8</ele>
        <time>2013-01-13T10:57:18Z</time>
      </trkpt>
      <trkpt lat="49.88293" lon="2.34628">
        <ele>21.4</ele>
        <time>2013-01-13T10:57:27Z</time>
      </trkpt>
      <trkpt lat="49.88286" lon="2.34609">
        <ele>24.1</ele>
        <time>2013-01-13T10:57:36Z</time>
      </trkpt>
      <trkpt lat="49.88281" lon="2.34589">
        <ele>20.2</ele>
        <time>2013-01-13T10:57:46Z</time>
      </trkpt>
      <trkpt lat="49.88278" lon="2.34567">
        <ele>21.1</ele>
        <time>2013-01-13T10:57:57Z</time>
      </trkpt>
      <trkpt lat="49.88279" lon="2.34545">
        <ele>14.6</ele>
        <time>2013-01-13T10:58:08Z</time>
      </trkpt>
      <trkpt lat="49.8828" lon="2.34523">
        <ele>16</ele>
        <time>2013-01-13T10:58:18Z</time>
      </trkpt>
      <trkpt lat="49.88282" lon="2.345">
        <ele>19.2</ele>
        <time>2013-01-13T10:58:28Z</time>
      </trkpt>
      <trkpt lat="49.88284" lon="2.34478">
        <ele>23.8</ele>
        <time>2013-01-13T10:58:38Z</time>
      </trkpt>
      <trkpt lat="49.88283" lon="2.34456">
        <ele>22.2</ele>
        <time>2013-01-13T10:58:47Z</time>
      </trkpt>
      <trkpt lat="49.88285" lon="2.34435">
        <ele>20.4</ele>
        <time>2013-01-13T10:58:56Z</time>
      </trkpt>
      <trkpt lat="49.88289" lon="2.34414">
        <ele>18</ele>
        <time>2013-01-13T10:59:08Z</time>
      </trkpt>
      <trkpt lat="49.88293" lon="2.34393">
        <ele>11.4</ele>
        <time>2013-01-13T10:59:17Z</time>
      </trkpt>
      <trkpt lat="49.88295" lon="2.34371">
        <ele>14.5</ele>
        <time>2013-01-13T10:59:27Z</time>
      </trkpt>
      <trkpt lat="49.88297" lon="2.34348">
        <ele>17.2</ele>
        <time>2013-01-13T10:59:36Z</time>
      </trkpt>
      <trkpt lat="49.883" lon="2.34327">
        <ele>19.4</ele>
        <time>2013-01-13T10:59:46Z</time>
      </trkpt>
      <trkpt lat="49.88302" lon="2.34305">
        <ele>18.4</ele>
        <time>2013-01-13T10:59:56Z</time>
      </trkpt>
      <trkpt lat="49.88307" lon="2.34284">
        <ele>17.4</ele>
        <time>2013-01-13T11:00:07Z</time>
      </trkpt>
      <trkpt lat="49.88312" lon="2.34264">
        <ele>18.3</ele>
        <time>2013-01-13T11:00:17Z</time>
      </trkpt>
      <trkpt lat="49.88318" lon="2.34243">
        <ele>16</ele>
        <time>2013-01-13T11:00:28Z</time>
      </trkpt>
      <trkpt lat="49.88324" lon="2.34222">
        <ele>16.9</ele>
        <time>2013-01-13T11:00:37Z</time>
      </trkpt>
      <trkpt lat="49.88329" lon="2.34202">
        <ele>16.1</ele>
        <time>2013-01-13T11:00:46Z</time>
      </trkpt>
      <trkpt lat="49.88333" lon="2.34181">
        <ele>18</ele>
        <time>2013-01-13T11:00:56Z</time>
      </trkpt>
      <trkpt lat="49.88337" lon="2.3416">
        <ele>20.3</ele>
        <time>2013-01-13T11:01:06Z</time>
      </trkpt>
      <trkpt lat="49.88342" lon="2.34139">
        <ele>20.2</ele>
        <time>2013-01-13T11:01:16Z</time>
      </trkpt>
      <trkpt lat="49.88348" lon="2.34118">
        <ele>15.8</ele>
        <time>2013-01-13T11:01:27Z</time>
      </trkpt>
      <trkpt lat="49.88353" lon="2.34097">
        <ele>15.7</ele>
        <time>2013-01-13T11:01:37Z</time>
      </trkpt>
      <trkpt lat="49.88357" lon="2.34075">
        <ele>15.6</ele>
        <time>2013-01-13T11:01:46Z</time>
      </trkpt>
      <trkpt lat="49.88362" lon="2.34055">
        <ele>15.5</ele>
        <time>2013-01-13T11:01:57Z</time>
      </trkpt>
      <trkpt lat="49.88369" lon="2.34036">
        <ele>15.4</ele>
        <time>2013-01-13T11:02:07Z</time>
      </trkpt>
      <trkpt lat="49.88375" lon="2.34017">
        <ele>16.3</ele>
        <time>2013-01-13T11:02:17Z</time>
      </trkpt>
      <trkpt lat="49.88385" lon="2.34">
        <ele>8.7</ele>
        <time>2013-01-13T11:02:27Z</time>
      </trkpt>
      <trkpt lat="49.88396" lon="2.33987">
        <ele>10.8</ele>
        <time>2013-01-13T11:02:38Z</time>
      </trkpt>
      <trkpt lat="49.88408" lon="2.33973">
        <ele>12.9</ele>
        <time>2013-01-13T11:02:49Z</time>
      </trkpt>
      <trkpt lat="49.8842" lon="2.3396">
        <ele>14.7</ele>
        <time>2013-01-13T11:02:58Z</time>
      </trkpt>
      <trkpt lat="49.88433" lon="2.3395">
        <ele>12.2</ele>
        <time>2013-01-13T11:03:08Z</time>
      </trkpt>
      <trkpt lat="49.88447" lon="2.33935">
        <ele>11.2</ele>
        <time>2013-01-13T11:03:17Z</time>
      </trkpt>
      <trkpt lat="49.88458" lon="2.33924">
        <ele>7.1</ele>
        <time>2013-01-13T11:03:28Z</time>
      </trkpt>
      <trkpt lat="49.88467" lon="2.33905">
        <ele>10.7</ele>
        <time>2013-01-13T11:03:38Z</time>
      </trkpt>
      <trkpt lat="49.88478" lon="2.33887">
        <ele>14.3</ele>
        <time>2013-01-13T11:03:48Z</time>
      </trkpt>
      <trkpt lat="49.88487" lon="2.33871">
        <ele>14.6</ele>
        <time>2013-01-13T11:03:57Z</time>
      </trkpt>
      <trkpt lat="49.88497" lon="2.33856">
        <ele>13.6</ele>
        <time>2013-01-13T11:04:05Z</time>
      </trkpt>
      <trkpt lat="49.88507" lon="2.33843">
        <ele>12.1</ele>
        <time>2013-01-13T11:04:16Z</time>
      </trkpt>
      <trkpt lat="49.88519" lon="2.33829">
        <ele>10.7</ele>
        <time>2013-01-13T11:04:26Z</time>
      </trkpt>
      <trkpt lat="49.8853" lon="2.33815">
        <ele>10.4</ele>
        <time>2013-01-13T11:04:36Z</time>
      </trkpt>
      <trkpt lat="49.88543" lon="2.33804">
        <ele>16.2</ele>
        <time>2013-01-13T11:04:46Z</time>
      </trkpt>
      <trkpt lat="49.88554" lon="2.33789">
        <ele>20.3</ele>
        <time>2013-01-13T11:04:57Z</time>
      </trkpt>
      <trkpt lat="49.88567" lon="2.33782">
        <ele>26.3</ele>
        <time>2013-01-13T11:05:08Z</time>
      </trkpt>
      <trkpt lat="49.8858" lon="2.33775">
        <ele>19</ele>
        <time>2013-01-13T11:05:18Z</time>
      </trkpt>
      <trkpt lat="49.88592" lon="2.33766">
        <ele>21.4</ele>
        <time>2013-01-13T11:05:26Z</time>
      </trkpt>
      <trkpt lat="49.88604" lon="2.33754">
        <ele>19</ele>
        <time>2013-01-13T11:05:34Z</time>
      </trkpt>
      <trkpt lat="49.88616" lon="2.33745">
        <ele>16.1</ele>
        <time>2013-01-13T11:05:44Z</time>
      </trkpt>
      <trkpt lat="49.88628" lon="2.33734">
        <ele>18</ele>
        <time>2013-01-13T11:05:55Z</time>
      </trkpt>
      <trkpt lat="49.88641" lon="2.33723">
        <ele>19.7</ele>
        <time>2013-01-13T11:06:05Z</time>
      </trkpt>
      <trkpt lat="49.88653" lon="2.33712">
        <ele>17.7</ele>
        <time>2013-01-13T11:06:15Z</time>
      </trkpt>
      <trkpt lat="49.88665" lon="2.337">
        <ele>13.8</ele>
        <time>2013-01-13T11:06:27Z</time>
      </trkpt>
      <trkpt lat="49.88677" lon="2.33687">
        <ele>15.6</ele>
        <time>2013-01-13T11:06:38Z</time>
      </trkpt>
      <trkpt lat="49.88691" lon="2.33677">
        <ele>14.1</ele>
        <time>2013-01-13T11:06:49Z</time>
      </trkpt>
      <trkpt lat="49.88702" lon="2.33664">
        <ele>17.7</ele>
        <time>2013-01-13T11:07:00Z</time>
      </trkpt>
      <trkpt lat="49.88713" lon="2.3365">
        <ele>13.3</ele>
        <time>2013-01-13T11:07:10Z</time>
      </trkpt>
      <trkpt lat="49.88723" lon="2.33633">
        <ele>16.4</ele>
        <time>2013-01-13T11:07:20Z</time>
      </trkpt>
      <trkpt lat="49.8873" lon="2.33614">
        <ele>24</ele>
        <time>2013-01-13T11:07:36Z</time>
      </trkpt>
      <trkpt lat="49.88745" lon="2.33605">
        <ele>16</ele>
        <time>2013-01-13T11:07:43Z</time>
      </trkpt>
      <trkpt lat="49.88759" lon="2.33599">
        <ele>5.7</ele>
        <time>2013-01-13T11:07:53Z</time>
      </trkpt>
      <trkpt lat="49.88773" lon="2.33594">
        <ele>2.8</ele>
        <time>2013-01-13T11:08:02Z</time>
      </trkpt>
      <trkpt lat="49.88787" lon="2.3359">
        <ele>5.1</ele>
        <time>2013-01-13T11:08:12Z</time>
      </trkpt>
      <trkpt lat="49.88802" lon="2.33591">
        <ele>3.9</ele>
        <time>2013-01-13T11:08:22Z</time>
      </trkpt>
      <trkpt lat="49.88818" lon="2.33595">
        <ele>2.6</ele>
        <time>2013-01-13T11:08:33Z</time>
      </trkpt>
      <trkpt lat="49.88831" lon="2.33598">
        <ele>1.4</ele>
        <time>2013-01-13T11:08:43Z</time>
      </trkpt>
      <trkpt lat="49.88845" lon="2.33601">
        <ele>7.4</ele>
        <time>2013-01-13T11:08:54Z</time>
      </trkpt>
      <trkpt lat="49.88859" lon="2.33598">
        <ele>11.3</ele>
        <time>2013-01-13T11:09:03Z</time>
      </trkpt>
      <trkpt lat="49.88874" lon="2.336">
        <ele>15.4</ele>
        <time>2013-01-13T11:09:14Z</time>
      </trkpt>
      <trkpt lat="49.88888" lon="2.33599">
        <ele>17.7</ele>
        <time>2013-01-13T11:09:23Z</time>
      </trkpt>
      <trkpt lat="49.88902" lon="2.33597">
        <ele>18</ele>
        <time>2013-01-13T11:09:32Z</time>
      </trkpt>
      <trkpt lat="49.88916" lon="2.33595">
        <ele>18.3</ele>
        <time>2013-01-13T11:09:42Z</time>
      </trkpt>
      <trkpt lat="49.88931" lon="2.33592">
        <ele>14.9</ele>
        <time>2013-01-13T11:09:54Z</time>
      </trkpt>
      <trkpt lat="49.88944" lon="2.33586">
        <ele>17.2</ele>
        <time>2013-01-13T11:10:03Z</time>
      </trkpt>
      <trkpt lat="49.88957" lon="2.33582">
        <ele>15</ele>
        <time>2013-01-13T11:10:13Z</time>
      </trkpt>
      <trkpt lat="49.88971" lon="2.33578">
        <ele>12</ele>
        <time>2013-01-13T11:10:22Z</time>
      </trkpt>
      <trkpt lat="49.88985" lon="2.33575">
        <ele>16.8</ele>
        <time>2013-01-13T11:10:32Z</time>
      </trkpt>
      <trkpt lat="49.88999" lon="2.33575">
        <ele>15.6</ele>
        <time>2013-01-13T11:10:43Z</time>
      </trkpt>
      <trkpt lat="49.89012" lon="2.33568">
        <ele>13.6</ele>
        <time>2013-01-13T11:10:54Z</time>
      </trkpt>
      <trkpt lat="49.89024" lon="2.3356">
        <ele>18.3</ele>
        <time>2013-01-13T11:11:03Z</time>
      </trkpt>
      <trkpt lat="49.89038" lon="2.3355">
        <ele>16.9</ele>
        <time>2013-01-13T11:11:14Z</time>
      </trkpt>
      <trkpt lat="49.89051" lon="2.33541">
        <ele>17.9</ele>
        <time>2013-01-13T11:11:24Z</time>
      </trkpt>
      <trkpt lat="49.89065" lon="2.33533">
        <ele>12.5</ele>
        <time>2013-01-13T11:11:34Z</time>
      </trkpt>
      <trkpt lat="49.89079" lon="2.33522">
        <ele>19</ele>
        <time>2013-01-13T11:11:45Z</time>
      </trkpt>
      <trkpt lat="49.8909" lon="2.33506">
        <ele>18.1</ele>
        <time>2013-01-13T11:11:56Z</time>
      </trkpt>
      <trkpt lat="49.891" lon="2.33491">
        <ele>14.7</ele>
        <time>2013-01-13T11:12:10Z</time>
      </trkpt>
      <trkpt lat="49.8911" lon="2.33475">
        <ele>11.5</ele>
        <time>2013-01-13T11:12:20Z</time>
      </trkpt>
      <trkpt lat="49.89113" lon="2.33453">
        <ele>16.1</ele>
        <time>2013-01-13T11:12:31Z</time>
      </trkpt>
      <trkpt lat="49.89112" lon="2.33431">
        <ele>16.6</ele>
        <time>2013-01-13T11:12:41Z</time>
      </trkpt>
      <trkpt lat="49.8911" lon="2.3341">
        <ele>17.1</ele>
        <time>2013-01-13T11:12:50Z</time>
      </trkpt>
      <trkpt lat="49.89109" lon="2.33387">
        <ele>17.8</ele>
        <time>2013-01-13T11:13:01Z</time>
      </trkpt>
      <trkpt lat="49.89112" lon="2.33366">
        <ele>19.4</ele>
        <time>2013-01-13T11:13:12Z</time>
      </trkpt>
      <trkpt lat="49.89112" lon="2.33338">
        <ele>19.5</ele>
        <time>2013-01-13T11:13:23Z</time>
      </trkpt>
      <trkpt lat="49.89112" lon="2.33316">
        <ele>16.5</ele>
        <time>2013-01-13T11:13:38Z</time>
      </trkpt>
      <trkpt lat="49.89114" lon="2.33294">
        <ele>10.8</ele>
        <time>2013-01-13T11:13:50Z</time>
      </trkpt>
      <trkpt lat="49.89116" lon="2.33271">
        <ele>5.8</ele>
        <time>2013-01-13T11:14:02Z</time>
      </trkpt>
      <trkpt lat="49.89113" lon="2.3325">
        <ele>14.1</ele>
        <time>2013-01-13T11:14:11Z</time>
      </trkpt>
      <trkpt lat="49.89112" lon="2.33228">
        <ele>15.8</ele>
        <time>2013-01-13T11:14:19Z</time>
      </trkpt>
      <trkpt lat="49.89113" lon="2.33205">
        <ele>18.3</ele>
        <time>2013-01-13T11:14:30Z</time>
      </trkpt>
      <trkpt lat="49.89115" lon="2.33183">
        <ele>19.7</ele>
        <time>2013-01-13T11:14:40Z</time>
      </trkpt>
      <trkpt lat="49.89119" lon="2.33162">
        <ele>13.3</ele>
        <time>2013-01-13T11:14:50Z</time>
      </trkpt>
      <trkpt lat="49.89124" lon="2.3314">
        <ele>16.4</ele>
        <time>2013-01-13T11:15:02Z</time>
      </trkpt>
      <trkpt lat="49.89126" lon="2.33116">
        <ele>16.8</ele>
        <time>2013-01-13T11:15:12Z</time>
      </trkpt>
      <trkpt lat="49.89131" lon="2.33095">
        <ele>19.1</ele>
        <time>2013-01-13T11:15:23Z</time>
      </trkpt>
      <trkpt lat="49.89137" lon="2.33076">
        <ele>14.9</ele>
        <time>2013-01-13T11:15:33Z</time>
      </trkpt>
      <trkpt lat="49.89147" lon="2.33059">
        <ele>12.5</ele>
        <time>2013-01-13T11:15:44Z</time>
      </trkpt>
      <trkpt lat="49.89158" lon="2.33043">
        <ele>10.4</ele>
        <time>2013-01-13T11:15:54Z</time>
      </trkpt>
      <trkpt lat="49.89166" lon="2.33025">
        <ele>8</ele>
        <time>2013-01-13T11:16:05Z</time>
      </trkpt>
      <trkpt lat="49.89171" lon="2.33003">
        <ele>10.1</ele>
        <time>2013-01-13T11:16:14Z</time>
      </trkpt>
      <trkpt lat="49.89177" lon="2.32982">
        <ele>13.6</ele>
        <time>2013-01-13T11:16:23Z</time>
      </trkpt>
      <trkpt lat="49.89182" lon="2.32962">
        <ele>13.7</ele>
        <time>2013-01-13T11:16:33Z</time>
      </trkpt>
      <trkpt lat="49.89188" lon="2.32937">
        <ele>17.7</ele>
        <time>2013-01-13T11:16:42Z</time>
      </trkpt>
      <trkpt lat="49.89196" lon="2.32919">
        <ele>9.8</ele>
        <time>2013-01-13T11:16:53Z</time>
      </trkpt>
      <trkpt lat="49.89209" lon="2.32906">
        <ele>14.3</ele>
        <time>2013-01-13T11:17:04Z</time>
      </trkpt>
      <trkpt lat="49.8922" lon="2.32889">
        <ele>15.1</ele>
        <time>2013-01-13T11:17:17Z</time>
      </trkpt>
      <trkpt lat="49.89229" lon="2.3287">
        <ele>14.2</ele>
        <time>2013-01-13T11:17:27Z</time>
      </trkpt>
      <trkpt lat="49.89237" lon="2.32852">
        <ele>18.5</ele>
        <time>2013-01-13T11:17:37Z</time>
      </trkpt>
      <trkpt lat="49.89245" lon="2.32834">
        <ele>13.2</ele>
        <time>2013-01-13T11:17:47Z</time>
      </trkpt>
      <trkpt lat="49.89254" lon="2.32817">
        <ele>11.4</ele>
        <time>2013-01-13T11:17:56Z</time>
      </trkpt>
      <trkpt lat="49.89262" lon="2.328">
        <ele>8.7</ele>
        <time>2013-01-13T11:18:07Z</time>
      </trkpt>
      <trkpt lat="49.89272" lon="2.32782">
        <ele>12.6</ele>
        <time>2013-01-13T11:18:19Z</time>
      </trkpt>
      <trkpt lat="49.89281" lon="2.32765">
        <ele>10.7</ele>
        <time>2013-01-13T11:18:29Z</time>
      </trkpt>
      <trkpt lat="49.89288" lon="2.32747">
        <ele>13.3</ele>
        <time>2013-01-13T11:18:37Z</time>
      </trkpt>
      <trkpt lat="49.89296" lon="2.32727">
        <ele>13.9</ele>
        <time>2013-01-13T11:18:46Z</time>
      </trkpt>
      <trkpt lat="49.89304" lon="2.32707">
        <ele>17.1</ele>
        <time>2013-01-13T11:18:58Z</time>
      </trkpt>
      <trkpt lat="49.89312" lon="2.32689">
        <ele>11.7</ele>
        <time>2013-01-13T11:19:13Z</time>
      </trkpt>
      <trkpt lat="49.89328" lon="2.32657">
        <ele>14.7</ele>
        <time>2013-01-13T11:19:31Z</time>
      </trkpt>
      <trkpt lat="49.89328" lon="2.32657">
        <ele>14.7</ele>
        <time>2013-01-13T11:20:22Z</time>
      </trkpt>
      <trkpt lat="49.89334" lon="2.32641">
        <ele>14.7</ele>
        <time>2013-01-13T11:20:24Z</time>
      </trkpt>
      <trkpt lat="49.89338" lon="2.32618">
        <ele>16.2</ele>
        <time>2013-01-13T11:20:34Z</time>
      </trkpt>
      <trkpt lat="49.89342" lon="2.32597">
        <ele>13.5</ele>
        <time>2013-01-13T11:20:45Z</time>
      </trkpt>
      <trkpt lat="49.89347" lon="2.32575">
        <ele>5.3</ele>
        <time>2013-01-13T11:20:57Z</time>
      </trkpt>
      <trkpt lat="49.89351" lon="2.32553">
        <ele>7</ele>
        <time>2013-01-13T11:21:07Z</time>
      </trkpt>
      <trkpt lat="49.89353" lon="2.32532">
        <ele>8.5</ele>
        <time>2013-01-13T11:21:16Z</time>
      </trkpt>
      <trkpt lat="49.89356" lon="2.3251">
        <ele>9.1</ele>
        <time>2013-01-13T11:21:25Z</time>
      </trkpt>
      <trkpt lat="49.89358" lon="2.32488">
        <ele>12.4</ele>
        <time>2013-01-13T11:21:35Z</time>
      </trkpt>
      <trkpt lat="49.89361" lon="2.32465">
        <ele>14.3</ele>
        <time>2013-01-13T11:21:46Z</time>
      </trkpt>
      <trkpt lat="49.89364" lon="2.32442">
        <ele>12.8</ele>
        <time>2013-01-13T11:21:57Z</time>
      </trkpt>
      <trkpt lat="49.89369" lon="2.32422">
        <ele>15.2</ele>
        <time>2013-01-13T11:22:06Z</time>
      </trkpt>
      <trkpt lat="49.89373" lon="2.32401">
        <ele>10.7</ele>
        <time>2013-01-13T11:22:16Z</time>
      </trkpt>
      <trkpt lat="49.89375" lon="2.32379">
        <ele>16.2</ele>
        <time>2013-01-13T11:22:26Z</time>
      </trkpt>
      <trkpt lat="49.89379" lon="2.32359">
        <ele>14.8</ele>
        <time>2013-01-13T11:22:36Z</time>
      </trkpt>
      <trkpt lat="49.89383" lon="2.32338">
        <ele>13.4</ele>
        <time>2013-01-13T11:22:46Z</time>
      </trkpt>
      <trkpt lat="49.89384" lon="2.32316">
        <ele>12</ele>
        <time>2013-01-13T11:22:56Z</time>
      </trkpt>
      <trkpt lat="49.89383" lon="2.32294">
        <ele>15.8</ele>
        <time>2013-01-13T11:23:06Z</time>
      </trkpt>
      <trkpt lat="49.89382" lon="2.32265">
        <ele>15.2</ele>
        <time>2013-01-13T11:23:16Z</time>
      </trkpt>
      <trkpt lat="49.89383" lon="2.32243">
        <ele>14.2</ele>
        <time>2013-01-13T11:23:30Z</time>
      </trkpt>
      <trkpt lat="49.89384" lon="2.32221">
        <ele>13.6</ele>
        <time>2013-01-13T11:23:40Z</time>
      </trkpt>
      <trkpt lat="49.89386" lon="2.32198">
        <ele>12.8</ele>
        <time>2013-01-13T11:23:51Z</time>
      </trkpt>
      <trkpt lat="49.89388" lon="2.32176">
        <ele>12.2</ele>
        <time>2013-01-13T11:24:01Z</time>
      </trkpt>
      <trkpt lat="49.89394" lon="2.32155">
        <ele>12.2</ele>
        <time>2013-01-13T11:24:11Z</time>
      </trkpt>
      <trkpt lat="49.89402" lon="2.32136">
        <ele>10.5</ele>
        <time>2013-01-13T11:24:22Z</time>
      </trkpt>
      <trkpt lat="49.89406" lon="2.32116">
        <ele>10.6</ele>
        <time>2013-01-13T11:24:32Z</time>
      </trkpt>
      <trkpt lat="49.89411" lon="2.32096">
        <ele>10.6</ele>
        <time>2013-01-13T11:24:41Z</time>
      </trkpt>
      <trkpt lat="49.89413" lon="2.32074">
        <ele>11.9</ele>
        <time>2013-01-13T11:24:52Z</time>
      </trkpt>
      <trkpt lat="49.89416" lon="2.32052">
        <ele>11.6</ele>
        <time>2013-01-13T11:25:02Z</time>
      </trkpt>
      <trkpt lat="49.89418" lon="2.3203">
        <ele>9.5</ele>
        <time>2013-01-13T11:25:12Z</time>
      </trkpt>
      <trkpt lat="49.89419" lon="2.32009">
        <ele>10.3</ele>
        <time>2013-01-13T11:25:27Z</time>
      </trkpt>
      <trkpt lat="49.89416" lon="2.31988">
        <ele>11.5</ele>
        <time>2013-01-13T11:25:36Z</time>
      </trkpt>
      <trkpt lat="49.89416" lon="2.31966">
        <ele>9.1</ele>
        <time>2013-01-13T11:25:44Z</time>
      </trkpt>
      <trkpt lat="49.89414" lon="2.31943">
        <ele>14.4</ele>
        <time>2013-01-13T11:25:55Z</time>
      </trkpt>
      <trkpt lat="49.89412" lon="2.31922">
        <ele>14.6</ele>
        <time>2013-01-13T11:26:06Z</time>
      </trkpt>
      <trkpt lat="49.89409" lon="2.31899">
        <ele>16.6</ele>
        <time>2013-01-13T11:26:14Z</time>
      </trkpt>
      <trkpt lat="49.89406" lon="2.31877">
        <ele>19.6</ele>
        <time>2013-01-13T11:26:26Z</time>
      </trkpt>
      <trkpt lat="49.89405" lon="2.31856">
        <ele>22.1</ele>
        <time>2013-01-13T11:26:35Z</time>
      </trkpt>
      <trkpt lat="49.89406" lon="2.31833">
        <ele>27</ele>
        <time>2013-01-13T11:26:46Z</time>
      </trkpt>
      <trkpt lat="49.89408" lon="2.31811">
        <ele>19.6</ele>
        <time>2013-01-13T11:26:56Z</time>
      </trkpt>
      <trkpt lat="49.89414" lon="2.3179">
        <ele>13.4</ele>
        <time>2013-01-13T11:27:07Z</time>
      </trkpt>
      <trkpt lat="49.89418" lon="2.31769">
        <ele>15.2</ele>
        <time>2013-01-13T11:27:16Z</time>
      </trkpt>
      <trkpt lat="49.89422" lon="2.31749">
        <ele>16.3</ele>
        <time>2013-01-13T11:27:24Z</time>
      </trkpt>
      <trkpt lat="49.89427" lon="2.31729">
        <ele>19.6</ele>
        <time>2013-01-13T11:27:35Z</time>
      </trkpt>
      <trkpt lat="49.89432" lon="2.31706">
        <ele>21.5</ele>
        <time>2013-01-13T11:27:49Z</time>
      </trkpt>
      <trkpt lat="49.89434" lon="2.31682">
        <ele>17.8</ele>
        <time>2013-01-13T11:28:00Z</time>
      </trkpt>
      <trkpt lat="49.89435" lon="2.31655">
        <ele>12.6</ele>
        <time>2013-01-13T11:28:12Z</time>
      </trkpt>
      <trkpt lat="49.89436" lon="2.31632">
        <ele>18.9</ele>
        <time>2013-01-13T11:28:25Z</time>
      </trkpt>
      <trkpt lat="49.89435" lon="2.31608">
        <ele>16.5</ele>
        <time>2013-01-13T11:28:34Z</time>
      </trkpt>
      <trkpt lat="49.89437" lon="2.31587">
        <ele>8.1</ele>
        <time>2013-01-13T11:28:46Z</time>
      </trkpt>
      <trkpt lat="49.89439" lon="2.31565">
        <ele>7</ele>
        <time>2013-01-13T11:28:58Z</time>
      </trkpt>
      <trkpt lat="49.8944" lon="2.31541">
        <ele>8</ele>
        <time>2013-01-13T11:29:13Z</time>
      </trkpt>
      <trkpt lat="49.89441" lon="2.31519">
        <ele>10.3</ele>
        <time>2013-01-13T11:29:24Z</time>
      </trkpt>
      <trkpt lat="49.89442" lon="2.31497">
        <ele>12.2</ele>
        <time>2013-01-13T11:29:35Z</time>
      </trkpt>
      <trkpt lat="49.89444" lon="2.31476">
        <ele>11.5</ele>
        <time>2013-01-13T11:29:44Z</time>
      </trkpt>
      <trkpt lat="49.89443" lon="2.31454">
        <ele>15.9</ele>
        <time>2013-01-13T11:29:56Z</time>
      </trkpt>
      <trkpt lat="49.89448" lon="2.31435">
        <ele>15.8</ele>
        <time>2013-01-13T11:30:05Z</time>
      </trkpt>
      <trkpt lat="49.89454" lon="2.31415">
        <ele>15.9</ele>
        <time>2013-01-13T11:30:17Z</time>
      </trkpt>
      <trkpt lat="49.8945" lon="2.31393">
        <ele>14.5</ele>
        <time>2013-01-13T11:30:29Z</time>
      </trkpt>
      <trkpt lat="49.89453" lon="2.3137">
        <ele>12.8</ele>
        <time>2013-01-13T11:30:45Z</time>
      </trkpt>
      <trkpt lat="49.89461" lon="2.3135">
        <ele>6.8</ele>
        <time>2013-01-13T11:31:00Z</time>
      </trkpt>
      <trkpt lat="49.89468" lon="2.31331">
        <ele>8.1</ele>
        <time>2013-01-13T11:31:13Z</time>
      </trkpt>
      <trkpt lat="49.89476" lon="2.313">
        <ele>8.7</ele>
        <time>2013-01-13T11:31:40Z</time>
      </trkpt>
      <trkpt lat="49.89476" lon="2.313">
        <ele>8.7</ele>
        <time>2013-01-13T11:32:29Z</time>
      </trkpt>
      <trkpt lat="49.89481" lon="2.31289">
        <ele>9.4</ele>
        <time>2013-01-13T11:32:29Z</time>
      </trkpt>
      <trkpt lat="49.89487" lon="2.3127">
        <ele>6.9</ele>
        <time>2013-01-13T11:32:41Z</time>
      </trkpt>
      <trkpt lat="49.8949" lon="2.31248">
        <ele>12.2</ele>
        <time>2013-01-13T11:32:52Z</time>
      </trkpt>
      <trkpt lat="49.89491" lon="2.31225">
        <ele>14.8</ele>
        <time>2013-01-13T11:33:02Z</time>
      </trkpt>
      <trkpt lat="49.8949" lon="2.31204">
        <ele>15.5</ele>
        <time>2013-01-13T11:33:12Z</time>
      </trkpt>
      <trkpt lat="49.89494" lon="2.31183">
        <ele>19.3</ele>
        <time>2013-01-13T11:33:25Z</time>
      </trkpt>
      <trkpt lat="49.89495" lon="2.31162">
        <ele>19.6</ele>
        <time>2013-01-13T11:33:36Z</time>
      </trkpt>
      <trkpt lat="49.89494" lon="2.31141">
        <ele>22.1</ele>
        <time>2013-01-13T11:33:46Z</time>
      </trkpt>
      <trkpt lat="49.89496" lon="2.31118">
        <ele>19.8</ele>
        <time>2013-01-13T11:33:57Z</time>
      </trkpt>
      <trkpt lat="49.89497" lon="2.31096">
        <ele>19.2</ele>
        <time>2013-01-13T11:34:08Z</time>
      </trkpt>
      <trkpt lat="49.89502" lon="2.31076">
        <ele>20.7</ele>
        <time>2013-01-13T11:34:20Z</time>
      </trkpt>
      <trkpt lat="49.89509" lon="2.31057">
        <ele>15.2</ele>
        <time>2013-01-13T11:34:31Z</time>
      </trkpt>
      <trkpt lat="49.8952" lon="2.31045">
        <ele>11.8</ele>
        <time>2013-01-13T11:34:41Z</time>
      </trkpt>
      <trkpt lat="49.89529" lon="2.31027">
        <ele>8.3</ele>
        <time>2013-01-13T11:34:53Z</time>
      </trkpt>
      <trkpt lat="49.89544" lon="2.31027">
        <ele>3.3</ele>
        <time>2013-01-13T11:35:06Z</time>
      </trkpt>
      <trkpt lat="49.89532" lon="2.3101">
        <ele>7.5</ele>
        <time>2013-01-13T11:35:19Z</time>
      </trkpt>
      <trkpt lat="49.89521" lon="2.30997">
        <ele>11.3</ele>
        <time>2013-01-13T11:35:26Z</time>
      </trkpt>
      <trkpt lat="49.89509" lon="2.30987">
        <ele>17.7</ele>
        <time>2013-01-13T11:35:38Z</time>
      </trkpt>
      <trkpt lat="49.89496" lon="2.30978">
        <ele>23.1</ele>
        <time>2013-01-13T11:35:48Z</time>
      </trkpt>
      <trkpt lat="49.89483" lon="2.3097">
        <ele>25.8</ele>
        <time>2013-01-13T11:36:01Z</time>
      </trkpt>
      <trkpt lat="49.89471" lon="2.30963">
        <ele>25.9</ele>
        <time>2013-01-13T11:36:11Z</time>
      </trkpt>
      <trkpt lat="49.89472" lon="2.30941">
        <ele>23.7</ele>
        <time>2013-01-13T11:36:18Z</time>
      </trkpt>
      <trkpt lat="49.8948" lon="2.30924">
        <ele>26</ele>
        <time>2013-01-13T11:36:33Z</time>
      </trkpt>
      <trkpt lat="49.89487" lon="2.30899">
        <ele>19.3</ele>
        <time>2013-01-13T11:36:46Z</time>
      </trkpt>
      <trkpt lat="49.89492" lon="2.30879">
        <ele>17.6</ele>
        <time>2013-01-13T11:36:58Z</time>
      </trkpt>
      <trkpt lat="49.89497" lon="2.30856">
        <ele>15</ele>
        <time>2013-01-13T11:37:09Z</time>
      </trkpt>
      <trkpt lat="49.89504" lon="2.30836">
        <ele>10.6</ele>
        <time>2013-01-13T11:37:20Z</time>
      </trkpt>
      <trkpt lat="49.89512" lon="2.30819">
        <ele>7.9</ele>
        <time>2013-01-13T11:37:32Z</time>
      </trkpt>
      <trkpt lat="49.89517" lon="2.30792">
        <ele>11.2</ele>
        <time>2013-01-13T11:37:49Z</time>
      </trkpt>
      <trkpt lat="49.89519" lon="2.30779">
        <ele>11.1</ele>
        <time>2013-01-13T11:38:05Z</time>
      </trkpt>
    </trkseg>
  </trk>
</gpx>